<?xml version='1.0' encoding='UTF-8'?><gpx version="1.1" creator="JPX - https://github.com/jenetics/jpx" xmlns="http://www.topografix.com/GPX/1/1"><trk><trkseg><trkpt lat="45.90008920528544" lon="10.19188715145941"><ele>251.00000000000003</ele><time>2026-05-03T19:11:14.999Z</time></trkpt><trkpt lat="45.90013601821465" lon="10.191801320770933"><ele>251.0</ele><time>2026-05-03T19:11:15.999Z</time></trkpt><trkpt lat="45.90017776009245" lon="10.191722195604994"><ele>251.0</ele><time>2026-05-03T19:11:16.999Z</time></trkpt><trkpt lat="45.90022821914954" lon="10.191659582788303"><ele>251.0</ele><time>2026-05-03T19:11:17.999Z</time></trkpt><trkpt lat="45.90033311866773" lon="10.191616499806"><ele>251.00000000000003</ele><time>2026-05-03T19:11:19.999Z</time></trkpt><trkpt lat="45.900421808772236" lon="10.19167587787809"><ele>251.0</ele><time>2026-05-03T19:11:21.999Z</time></trkpt><trkpt lat="45.900482215757414" lon="10.191744040831763"><ele>251.0</ele><time>2026-05-03T19:11:23.999Z</time></trkpt><trkpt lat="45.900586646921184" lon="10.191874973541925"><ele>251.00000000000003</ele><time>2026-05-03T19:11:26.999Z</time></trkpt><trkpt lat="45.90067125184173" lon="10.191984567892472"><ele>251.00000000000003</ele><time>2026-05-03T19:11:28.999Z</time></trkpt><trkpt lat="45.90073219750499" lon="10.192032710279735"><ele>251.0</ele><time>2026-05-03T19:11:29.999Z</time></trkpt><trkpt lat="45.900795458850105" lon="10.192091201241208"><ele>251.0</ele><time>2026-05-03T19:11:30.999Z</time></trkpt><trkpt lat="45.900848686735856" lon="10.19214073794659"><ele>253.66666666666669</ele><time>2026-05-03T19:11:31.999Z</time></trkpt><trkpt lat="45.90096629016015" lon="10.192217544294824"><ele>256.33333333333337</ele><time>2026-05-03T19:11:34Z</time></trkpt><trkpt lat="45.9010220930295" lon="10.192280719382511"><ele>259.0</ele><time>2026-05-03T19:11:35Z</time></trkpt><trkpt lat="45.9010838908206" lon="10.192329011399279"><ele>261.6666666666667</ele><time>2026-05-03T19:11:36Z</time></trkpt><trkpt lat="45.901146784664896" lon="10.192378803411286"><ele>264.3333333333333</ele><time>2026-05-03T19:11:37Z</time></trkpt><trkpt lat="45.90120920727514" lon="10.192430531045906"><ele>267.0</ele><time>2026-05-03T19:11:38Z</time></trkpt><trkpt lat="45.90127892440909" lon="10.192475649508559"><ele>267.0</ele><time>2026-05-03T19:11:39Z</time></trkpt><trkpt lat="45.901321150073755" lon="10.192552193587904"><ele>267.0</ele><time>2026-05-03T19:11:40Z</time></trkpt><trkpt lat="45.901393886633414" lon="10.192621876367724"><ele>267.0</ele><time>2026-05-03T19:11:42Z</time></trkpt><trkpt lat="45.90142315690644" lon="10.192708405843936"><ele>267.0</ele><time>2026-05-03T19:11:44Z</time></trkpt><trkpt lat="45.90154803678453" lon="10.192537789212547"><ele>267.0</ele><time>2026-05-03T19:11:46Z</time></trkpt><trkpt lat="45.9015761421423" lon="10.192436072139266"><ele>267.5</ele><time>2026-05-03T19:11:47Z</time></trkpt><trkpt lat="45.90159163571057" lon="10.19229247919374"><ele>268.0</ele><time>2026-05-03T19:11:50Z</time></trkpt><trkpt lat="45.90160240050336" lon="10.192174364194068"><ele>268.5</ele><time>2026-05-03T19:11:52Z</time></trkpt><trkpt lat="45.90163488779296" lon="10.192061989328245"><ele>269.0</ele><time>2026-05-03T19:11:54Z</time></trkpt><trkpt lat="45.901693159970854" lon="10.192023610347619"><ele>269.5</ele><time>2026-05-03T19:11:56Z</time></trkpt><trkpt lat="45.90180102524772" lon="10.192061201602124"><ele>270.0</ele><time>2026-05-03T19:11:58Z</time></trkpt><trkpt lat="45.901866201642044" lon="10.192047770629449"><ele>272.8</ele><time>2026-05-03T19:12:01Z</time></trkpt><trkpt lat="45.90196413998791" lon="10.192051951968732"><ele>275.6</ele><time>2026-05-03T19:12:02Z</time></trkpt><trkpt lat="45.90200471764768" lon="10.192245476355303"><ele>278.4</ele><time>2026-05-03T19:12:03Z</time></trkpt><trkpt lat="45.901995546042826" lon="10.192402225644477"><ele>281.2</ele><time>2026-05-03T19:12:06Z</time></trkpt><trkpt lat="45.901997423772265" lon="10.192495460005048"><ele>284.0</ele><time>2026-05-03T19:12:08Z</time></trkpt><trkpt lat="45.90190466111058" lon="10.192612203372969"><ele>284.0</ele><time>2026-05-03T19:12:09Z</time></trkpt><trkpt lat="45.9019497056001" lon="10.192741164199557"><ele>284.0</ele><time>2026-05-03T19:12:11Z</time></trkpt><trkpt lat="45.901961744917934" lon="10.192845360605805"><ele>284.0</ele><time>2026-05-03T19:12:13Z</time></trkpt><trkpt lat="45.902005958738606" lon="10.193013440411761"><ele>284.0</ele><time>2026-05-03T19:12:15Z</time></trkpt><trkpt lat="45.902067500931636" lon="10.193138194088785"><ele>284.0</ele><time>2026-05-03T19:12:17Z</time></trkpt><trkpt lat="45.90211899607277" lon="10.193266042523906"><ele>283.0</ele><time>2026-05-03T19:12:19Z</time></trkpt><trkpt lat="45.902162254844136" lon="10.1933515186322"><ele>282.0</ele><time>2026-05-03T19:12:21Z</time></trkpt><trkpt lat="45.902180335639656" lon="10.19345503016923"><ele>281.0</ele><time>2026-05-03T19:12:23Z</time></trkpt><trkpt lat="45.902205442048" lon="10.19355416266631"><ele>280.0</ele><time>2026-05-03T19:12:26Z</time></trkpt><trkpt lat="45.90233067278986" lon="10.193557536941803"><ele>279.0</ele><time>2026-05-03T19:12:28Z</time></trkpt><trkpt lat="45.90240871735775" lon="10.193518122473812"><ele>278.0</ele><time>2026-05-03T19:12:30Z</time></trkpt><trkpt lat="45.9024923761267" lon="10.193475872694798"><ele>278.0</ele><time>2026-05-03T19:12:32Z</time></trkpt><trkpt lat="45.90256819784753" lon="10.19341492224335"><ele>278.0</ele><time>2026-05-03T19:12:34Z</time></trkpt><trkpt lat="45.9026629846272" lon="10.193286071238449"><ele>278.0</ele><time>2026-05-03T19:12:36Z</time></trkpt><trkpt lat="45.90273100780953" lon="10.193215423459936"><ele>278.0</ele><time>2026-05-03T19:12:38Z</time></trkpt><trkpt lat="45.90279613126119" lon="10.193125632027952"><ele>278.0</ele><time>2026-05-03T19:12:41Z</time></trkpt><trkpt lat="45.90285846575568" lon="10.19307651416664"><ele>278.5</ele><time>2026-05-03T19:12:45Z</time></trkpt><trkpt lat="45.90290819576137" lon="10.193136063000093"><ele>279.0</ele><time>2026-05-03T19:12:46Z</time></trkpt><trkpt lat="45.902956264205244" lon="10.193195901026028"><ele>279.5</ele><time>2026-05-03T19:12:48Z</time></trkpt><trkpt lat="45.903021665373295" lon="10.193231036471351"><ele>280.0</ele><time>2026-05-03T19:12:52Z</time></trkpt><trkpt lat="45.903129728494314" lon="10.193278192010892"><ele>280.5</ele><time>2026-05-03T19:12:54Z</time></trkpt><trkpt lat="45.90324706841206" lon="10.193322861184873"><ele>281.0</ele><time>2026-05-03T19:12:56Z</time></trkpt><trkpt lat="45.903368423943206" lon="10.193357691925678"><ele>284.75</ele><time>2026-05-03T19:12:58Z</time></trkpt><trkpt lat="45.903485054557535" lon="10.193385565388771"><ele>288.5</ele><time>2026-05-03T19:13:00Z</time></trkpt><trkpt lat="45.90360427684776" lon="10.193439764329119"><ele>292.25</ele><time>2026-05-03T19:13:02Z</time></trkpt><trkpt lat="45.90371784862677" lon="10.19348828759393"><ele>296.0</ele><time>2026-05-03T19:13:04Z</time></trkpt><trkpt lat="45.90381820975744" lon="10.193549974892262"><ele>296.0</ele><time>2026-05-03T19:13:06Z</time></trkpt><trkpt lat="45.90387918660469" lon="10.193605216075353"><ele>296.0</ele><time>2026-05-03T19:13:09Z</time></trkpt><trkpt lat="45.9039345877926" lon="10.193651547685233"><ele>296.0</ele><time>2026-05-03T19:13:12Z</time></trkpt><trkpt lat="45.90401413163293" lon="10.193723740184325"><ele>296.0</ele><time>2026-05-03T19:13:14Z</time></trkpt><trkpt lat="45.90409103330272" lon="10.193836214672771"><ele>296.0</ele><time>2026-05-03T19:13:16Z</time></trkpt><trkpt lat="45.90414234104995" lon="10.193953507952596"><ele>296.0</ele><time>2026-05-03T19:13:18Z</time></trkpt><trkpt lat="45.90416606151175" lon="10.194038446555954"><ele>294.6</ele><time>2026-05-03T19:13:19Z</time></trkpt><trkpt lat="45.904211763318806" lon="10.194186396001953"><ele>293.20000000000005</ele><time>2026-05-03T19:13:20.999Z</time></trkpt><trkpt lat="45.90424228851829" lon="10.194340186864384"><ele>291.79999999999995</ele><time>2026-05-03T19:13:22.999Z</time></trkpt><trkpt lat="45.904246510604935" lon="10.194485873443364"><ele>290.4</ele><time>2026-05-03T19:13:24.999Z</time></trkpt><trkpt lat="45.904242721304314" lon="10.19464033404809"><ele>289.0</ele><time>2026-05-03T19:13:26.999Z</time></trkpt><trkpt lat="45.90423602195498" lon="10.194797470128465"><ele>288.2</ele><time>2026-05-03T19:13:28.999Z</time></trkpt><trkpt lat="45.90423327962195" lon="10.194939235528517"><ele>287.4</ele><time>2026-05-03T19:13:30.999Z</time></trkpt><trkpt lat="45.90424048179643" lon="10.19508540220848"><ele>286.6</ele><time>2026-05-03T19:13:32.999Z</time></trkpt><trkpt lat="45.90425186278311" lon="10.195243640083918"><ele>285.8</ele><time>2026-05-03T19:13:34.999Z</time></trkpt><trkpt lat="45.90427251274559" lon="10.195385842436494"><ele>285.0</ele><time>2026-05-03T19:13:36.999Z</time></trkpt><trkpt lat="45.904296251995405" lon="10.195518728219637"><ele>289.1666666666667</ele><time>2026-05-03T19:13:38.999Z</time></trkpt><trkpt lat="45.90432066292004" lon="10.195642050148177"><ele>293.3333333333333</ele><time>2026-05-03T19:13:40.999Z</time></trkpt><trkpt lat="45.904350997090596" lon="10.195751715000073"><ele>297.5</ele><time>2026-05-03T19:13:42.999Z</time></trkpt><trkpt lat="45.90439166513856" lon="10.195835334267802"><ele>301.66666666666663</ele><time>2026-05-03T19:13:46.999Z</time></trkpt><trkpt lat="45.90443136520441" lon="10.195919342319383"><ele>305.8333333333333</ele><time>2026-05-03T19:13:50.999Z</time></trkpt><trkpt lat="45.904481137472594" lon="10.196006492610056"><ele>310.0</ele><time>2026-05-03T19:13:55Z</time></trkpt><trkpt lat="45.90452575366012" lon="10.196079246712719"><ele>310.0</ele><time>2026-05-03T19:13:58Z</time></trkpt><trkpt lat="45.90458242439999" lon="10.196160422949028"><ele>310.0</ele><time>2026-05-03T19:14:01Z</time></trkpt><trkpt lat="45.90463893417537" lon="10.196236521290563"><ele>310.0</ele><time>2026-05-03T19:14:05Z</time></trkpt><trkpt lat="45.904695136061385" lon="10.196312436548617"><ele>310.0</ele><time>2026-05-03T19:14:08Z</time></trkpt><trkpt lat="45.90473876761538" lon="10.196387512646636"><ele>310.0</ele><time>2026-05-03T19:14:10Z</time></trkpt><trkpt lat="45.90479050847011" lon="10.196451436158538"><ele>310.0</ele><time>2026-05-03T19:14:12Z</time></trkpt><trkpt lat="45.90485487461677" lon="10.19651883655094"><ele>311.16666666666663</ele><time>2026-05-03T19:14:14Z</time></trkpt><trkpt lat="45.90492430382384" lon="10.196580216776225"><ele>312.3333333333333</ele><time>2026-05-03T19:14:16Z</time></trkpt><trkpt lat="45.90499150243021" lon="10.196638917670718"><ele>313.5</ele><time>2026-05-03T19:14:18Z</time></trkpt><trkpt lat="45.90506225537235" lon="10.196695045572762"><ele>314.6666666666667</ele><time>2026-05-03T19:14:20Z</time></trkpt><trkpt lat="45.90513434710708" lon="10.1967547443784"><ele>315.83333333333337</ele><time>2026-05-03T19:14:22Z</time></trkpt><trkpt lat="45.905208443693425" lon="10.196816105056124"><ele>317.0</ele><time>2026-05-03T19:14:24Z</time></trkpt><trkpt lat="45.90527024631757" lon="10.196889702252967"><ele>317.0</ele><time>2026-05-03T19:14:26Z</time></trkpt><trkpt lat="45.9053278334284" lon="10.196959954241322"><ele>317.0</ele><time>2026-05-03T19:14:28Z</time></trkpt><trkpt lat="45.90540436078215" lon="10.197038476418307"><ele>317.0</ele><time>2026-05-03T19:14:31Z</time></trkpt><trkpt lat="45.90546735171151" lon="10.197086559005117"><ele>317.0</ele><time>2026-05-03T19:14:33Z</time></trkpt><trkpt lat="45.9055438778875" lon="10.197126450858512"><ele>317.0</ele><time>2026-05-03T19:14:35Z</time></trkpt><trkpt lat="45.90560986354004" lon="10.197118263908857"><ele>317.0</ele><time>2026-05-03T19:14:37Z</time></trkpt><trkpt lat="45.905675055992454" lon="10.19708703296862"><ele>317.0</ele><time>2026-05-03T19:14:39Z</time></trkpt><trkpt lat="45.90575564338649" lon="10.197114778108572"><ele>317.0</ele><time>2026-05-03T19:14:42Z</time></trkpt><trkpt lat="45.90580251498442" lon="10.19717780228397"><ele>317.0</ele><time>2026-05-03T19:14:44Z</time></trkpt><trkpt lat="45.905870663479654" lon="10.197236575614014"><ele>317.0</ele><time>2026-05-03T19:14:46Z</time></trkpt><trkpt lat="45.90594514066021" lon="10.197314955628261"><ele>317.0</ele><time>2026-05-03T19:14:48Z</time></trkpt><trkpt lat="45.906011895015496" lon="10.197399563166249"><ele>317.0</ele><time>2026-05-03T19:14:50Z</time></trkpt><trkpt lat="45.90608050186146" lon="10.19752610966763"><ele>316.83333333333337</ele><time>2026-05-03T19:14:52Z</time></trkpt><trkpt lat="45.906141128952875" lon="10.197633244669065"><ele>316.6666666666667</ele><time>2026-05-03T19:14:54Z</time></trkpt><trkpt lat="45.90619153318489" lon="10.19774488950346"><ele>316.5</ele><time>2026-05-03T19:14:56Z</time></trkpt><trkpt lat="45.906221075182636" lon="10.197884492495145"><ele>316.3333333333333</ele><time>2026-05-03T19:14:58Z</time></trkpt><trkpt lat="45.90626409328134" lon="10.197972214271685"><ele>316.16666666666663</ele><time>2026-05-03T19:15:00Z</time></trkpt><trkpt lat="45.90629973364016" lon="10.198069394781763"><ele>316.0</ele><time>2026-05-03T19:15:02Z</time></trkpt><trkpt lat="45.906334305941" lon="10.198172823580729"><ele>316.0</ele><time>2026-05-03T19:15:04Z</time></trkpt><trkpt lat="45.90637159940707" lon="10.198268917855675"><ele>316.0</ele><time>2026-05-03T19:15:06Z</time></trkpt><trkpt lat="45.90640790210778" lon="10.198371125651288"><ele>316.0</ele><time>2026-05-03T19:15:09Z</time></trkpt><trkpt lat="45.906457492058074" lon="10.198486057744224"><ele>316.0</ele><time>2026-05-03T19:15:11Z</time></trkpt><trkpt lat="45.906525516225614" lon="10.198565466074182"><ele>316.0</ele><time>2026-05-03T19:15:13Z</time></trkpt><trkpt lat="45.90659118886983" lon="10.198631101115103"><ele>316.0</ele><time>2026-05-03T19:15:16Z</time></trkpt><trkpt lat="45.90665433618326" lon="10.198696446674074"><ele>316.0</ele><time>2026-05-03T19:15:19Z</time></trkpt><trkpt lat="45.90668786460201" lon="10.19879815043387"><ele>316.0</ele><time>2026-05-03T19:15:21Z</time></trkpt><trkpt lat="45.90674281840563" lon="10.198908144638928"><ele>316.0</ele><time>2026-05-03T19:15:24Z</time></trkpt><trkpt lat="45.906778372674786" lon="10.199012019970914"><ele>316.0</ele><time>2026-05-03T19:15:25.999Z</time></trkpt><trkpt lat="45.90681935304753" lon="10.19908220256743"><ele>316.0</ele><time>2026-05-03T19:15:27.999Z</time></trkpt><trkpt lat="45.906856314488024" lon="10.199174733551065"><ele>316.0</ele><time>2026-05-03T19:15:30.999Z</time></trkpt><trkpt lat="45.90689965194027" lon="10.199258330985169"><ele>319.8333333333333</ele><time>2026-05-03T19:15:32.999Z</time></trkpt><trkpt lat="45.90696880511699" lon="10.199352685708519"><ele>323.66666666666663</ele><time>2026-05-03T19:15:35.999Z</time></trkpt><trkpt lat="45.90704939491654" lon="10.19942799676286"><ele>327.5</ele><time>2026-05-03T19:15:37.999Z</time></trkpt><trkpt lat="45.90709040065457" lon="10.199519253691108"><ele>331.3333333333333</ele><time>2026-05-03T19:15:39.999Z</time></trkpt><trkpt lat="45.90714984815593" lon="10.199603127288817"><ele>335.1666666666667</ele><time>2026-05-03T19:15:42.999Z</time></trkpt><trkpt lat="45.90719974348382" lon="10.199687273016178"><ele>339.0</ele><time>2026-05-03T19:15:45.999Z</time></trkpt><trkpt lat="45.90726097038383" lon="10.19975233095486"><ele>339.0</ele><time>2026-05-03T19:15:49.999Z</time></trkpt><trkpt lat="45.90731231538681" lon="10.199814352483719"><ele>339.0</ele><time>2026-05-03T19:15:53Z</time></trkpt><trkpt lat="45.907367531094906" lon="10.199871605811227"><ele>339.0</ele><time>2026-05-03T19:15:56Z</time></trkpt><trkpt lat="45.90742349625862" lon="10.199931335519347"><ele>339.0</ele><time>2026-05-03T19:15:59Z</time></trkpt><trkpt lat="45.907483756284826" lon="10.199974519140923"><ele>339.0</ele><time>2026-05-03T19:16:02Z</time></trkpt><trkpt lat="45.90755066413221" lon="10.200010383968896"><ele>339.0</ele><time>2026-05-03T19:16:05Z</time></trkpt><trkpt lat="45.90763515239582" lon="10.200050854158144"><ele>339.0</ele><time>2026-05-03T19:16:08Z</time></trkpt><trkpt lat="45.90772393898762" lon="10.20008994911095"><ele>339.7142857142857</ele><time>2026-05-03T19:16:11Z</time></trkpt><trkpt lat="45.907801015832625" lon="10.200114286671008"><ele>340.42857142857144</ele><time>2026-05-03T19:16:14Z</time></trkpt><trkpt lat="45.90787207264919" lon="10.200133570497288"><ele>341.14285714285717</ele><time>2026-05-03T19:16:17Z</time></trkpt><trkpt lat="45.90793086145898" lon="10.200172852295005"><ele>341.8571428571429</ele><time>2026-05-03T19:16:20Z</time></trkpt><trkpt lat="45.90799740839331" lon="10.200216459075735"><ele>342.57142857142856</ele><time>2026-05-03T19:16:24Z</time></trkpt><trkpt lat="45.90806948906527" lon="10.200264031905188"><ele>343.28571428571433</ele><time>2026-05-03T19:16:28Z</time></trkpt><trkpt lat="45.908131124505424" lon="10.20032356142781"><ele>344.0</ele><time>2026-05-03T19:16:31Z</time></trkpt><trkpt lat="45.90818439998263" lon="10.200401921868846"><ele>344.0</ele><time>2026-05-03T19:16:34Z</time></trkpt><trkpt lat="45.90824144036606" lon="10.200493782170255"><ele>344.0</ele><time>2026-05-03T19:16:37Z</time></trkpt><trkpt lat="45.90829953431495" lon="10.200579418134142"><ele>344.0</ele><time>2026-05-03T19:16:40Z</time></trkpt><trkpt lat="45.90836452347725" lon="10.200648121827157"><ele>344.0</ele><time>2026-05-03T19:16:43Z</time></trkpt><trkpt lat="45.908427954268525" lon="10.200712780069797"><ele>344.0</ele><time>2026-05-03T19:16:46Z</time></trkpt><trkpt lat="45.90847651366781" lon="10.200771892937238"><ele>344.0</ele><time>2026-05-03T19:16:48Z</time></trkpt><trkpt lat="45.90854788702123" lon="10.200840871862423"><ele>344.6666666666667</ele><time>2026-05-03T19:16:51Z</time></trkpt><trkpt lat="45.9086016363544" lon="10.200896297561007"><ele>345.33333333333337</ele><time>2026-05-03T19:16:54Z</time></trkpt><trkpt lat="45.90865907253436" lon="10.200941794020894"><ele>346.0</ele><time>2026-05-03T19:16:57Z</time></trkpt><trkpt lat="45.90871661947123" lon="10.201006431205712"><ele>346.6666666666667</ele><time>2026-05-03T19:16:59Z</time></trkpt><trkpt lat="45.90878356866539" lon="10.201072083049132"><ele>347.3333333333333</ele><time>2026-05-03T19:17:02Z</time></trkpt><trkpt lat="45.908861724207995" lon="10.201140912951901"><ele>348.0</ele><time>2026-05-03T19:17:05Z</time></trkpt><trkpt lat="45.90894162123973" lon="10.20120753212689"><ele>348.0</ele><time>2026-05-03T19:17:08Z</time></trkpt><trkpt lat="45.909005315539154" lon="10.201288997325525"><ele>348.0</ele><time>2026-05-03T19:17:11Z</time></trkpt><trkpt lat="45.909049564828315" lon="10.201359947645871"><ele>348.0</ele><time>2026-05-03T19:17:14Z</time></trkpt><trkpt lat="45.90910463333993" lon="10.201439306719486"><ele>348.0</ele><time>2026-05-03T19:17:17Z</time></trkpt><trkpt lat="45.90916502249539" lon="10.201530231572358"><ele>348.0</ele><time>2026-05-03T19:17:20Z</time></trkpt><trkpt lat="45.90921023158972" lon="10.201618374460322"><ele>348.0</ele><time>2026-05-03T19:17:23Z</time></trkpt><trkpt lat="45.90925051278552" lon="10.201717935217127"><ele>351.6666666666667</ele><time>2026-05-03T19:17:26Z</time></trkpt><trkpt lat="45.90932377104704" lon="10.201807969717656"><ele>355.3333333333333</ele><time>2026-05-03T19:17:30Z</time></trkpt><trkpt lat="45.90934268628156" lon="10.201905000939083"><ele>359.0</ele><time>2026-05-03T19:17:31.999Z</time></trkpt><trkpt lat="45.909398697357005" lon="10.201971919836367"><ele>362.66666666666663</ele><time>2026-05-03T19:17:34.999Z</time></trkpt><trkpt lat="45.90947844629703" lon="10.201979698050765"><ele>366.3333333333333</ele><time>2026-05-03T19:17:37.999Z</time></trkpt><trkpt lat="45.90957563331057" lon="10.202018432875343"><ele>370.0</ele><time>2026-05-03T19:17:41.999Z</time></trkpt><trkpt lat="45.90976363714536" lon="10.202097001236641"><ele>370.0</ele><time>2026-05-03T19:17:47.999Z</time></trkpt><trkpt lat="45.90981738740009" lon="10.202144275472905"><ele>370.0</ele><time>2026-05-03T19:17:49.999Z</time></trkpt><trkpt lat="45.90989786134126" lon="10.202157333149438"><ele>370.0</ele><time>2026-05-03T19:17:52.999Z</time></trkpt><trkpt lat="45.90997200745714" lon="10.202196608253146"><ele>370.0</ele><time>2026-05-03T19:17:54.999Z</time></trkpt><trkpt lat="45.910061955969354" lon="10.20223453082102"><ele>370.0</ele><time>2026-05-03T19:17:57Z</time></trkpt><trkpt lat="45.91013930953232" lon="10.202280101773027"><ele>370.0</ele><time>2026-05-03T19:18:00Z</time></trkpt><trkpt lat="45.910176516423746" lon="10.202360999800474"><ele>369.2</ele><time>2026-05-03T19:18:02Z</time></trkpt><trkpt lat="45.91022505890725" lon="10.20242925743731"><ele>368.4</ele><time>2026-05-03T19:18:04Z</time></trkpt><trkpt lat="45.91032920868369" lon="10.202537851749735"><ele>367.6</ele><time>2026-05-03T19:18:07Z</time></trkpt><trkpt lat="45.910341168082326" lon="10.202707106886699"><ele>366.8</ele><time>2026-05-03T19:18:09Z</time></trkpt><trkpt lat="45.91034872124415" lon="10.202863606178052"><ele>366.0</ele><time>2026-05-03T19:18:12Z</time></trkpt><trkpt lat="45.91037422690912" lon="10.202977624773402"><ele>366.0</ele><time>2026-05-03T19:18:14Z</time></trkpt><trkpt lat="45.91037714205656" lon="10.203084260971789"><ele>366.0</ele><time>2026-05-03T19:18:15Z</time></trkpt><trkpt lat="45.91040622839679" lon="10.20316927057322"><ele>366.0</ele><time>2026-05-03T19:18:18Z</time></trkpt><trkpt lat="45.91046891481165" lon="10.203255597577181"><ele>366.0</ele><time>2026-05-03T19:18:21Z</time></trkpt><trkpt lat="45.91049697126533" lon="10.203341550945431"><ele>366.0</ele><time>2026-05-03T19:18:23Z</time></trkpt><trkpt lat="45.910572943572376" lon="10.203259177605416"><ele>366.0</ele><time>2026-05-03T19:18:24Z</time></trkpt><trkpt lat="45.91064703336382" lon="10.203296498450753"><ele>361.6</ele><time>2026-05-03T19:18:27Z</time></trkpt><trkpt lat="45.91070969542219" lon="10.203376771281054"><ele>357.20000000000005</ele><time>2026-05-03T19:18:30Z</time></trkpt><trkpt lat="45.910734235321144" lon="10.203556177839939"><ele>352.79999999999995</ele><time>2026-05-03T19:18:31Z</time></trkpt><trkpt lat="45.910818948131244" lon="10.203670349113407"><ele>348.4</ele><time>2026-05-03T19:18:35Z</time></trkpt><trkpt lat="45.91085157919298" lon="10.20376148023099"><ele>344.0</ele><time>2026-05-03T19:18:40Z</time></trkpt><trkpt lat="45.91089195096385" lon="10.203845942119006"><ele>348.0</ele><time>2026-05-03T19:18:43Z</time></trkpt><trkpt lat="45.91112159551784" lon="10.20391949762615"><ele>352.0</ele><time>2026-05-03T19:18:51Z</time></trkpt><trkpt lat="45.9112171946414" lon="10.204035622637337"><ele>356.0</ele><time>2026-05-03T19:18:55Z</time></trkpt><trkpt lat="45.91119710121192" lon="10.204141644550415"><ele>360.0</ele><time>2026-05-03T19:18:57Z</time></trkpt><trkpt lat="45.91124755278899" lon="10.204206921071783"><ele>360.0</ele><time>2026-05-03T19:19:01Z</time></trkpt><trkpt lat="45.91129384512422" lon="10.204274464651663"><ele>360.0</ele><time>2026-05-03T19:19:05Z</time></trkpt><trkpt lat="45.91133515222763" lon="10.204347106717286"><ele>360.0</ele><time>2026-05-03T19:19:08Z</time></trkpt><trkpt lat="45.91142745796884" lon="10.204479294853058"><ele>360.0</ele><time>2026-05-03T19:19:12.001Z</time></trkpt><trkpt lat="45.91148552850459" lon="10.204556536519092"><ele>360.0</ele><time>2026-05-03T19:19:15.001Z</time></trkpt><trkpt lat="45.91151509872203" lon="10.204653256834089"><ele>360.0</ele><time>2026-05-03T19:19:18.001Z</time></trkpt><trkpt lat="45.91163544014255" lon="10.204677483540872"><ele>360.0</ele><time>2026-05-03T19:19:21.001Z</time></trkpt><trkpt lat="45.911734256483" lon="10.204591803509132"><ele>360.0</ele><time>2026-05-03T19:19:22.001Z</time></trkpt><trkpt lat="45.91178317664283" lon="10.204661784186397"><ele>360.0</ele><time>2026-05-03T19:19:25.001Z</time></trkpt><trkpt lat="45.911843949261346" lon="10.20474347677064"><ele>360.0</ele><time>2026-05-03T19:19:29.001Z</time></trkpt><trkpt lat="45.91189305574186" lon="10.204814708965557"><ele>360.0</ele><time>2026-05-03T19:19:32.001Z</time></trkpt><trkpt lat="45.9119498747477" lon="10.204891669331086"><ele>360.0</ele><time>2026-05-03T19:19:36.001Z</time></trkpt><trkpt lat="45.91199484790398" lon="10.204964642092014"><ele>361.3333333333333</ele><time>2026-05-03T19:19:40Z</time></trkpt><trkpt lat="45.91204717664326" lon="10.205036440896626"><ele>362.6666666666667</ele><time>2026-05-03T19:19:44Z</time></trkpt><trkpt lat="45.912115636562966" lon="10.20510126970399"><ele>364.0</ele><time>2026-05-03T19:19:47Z</time></trkpt><trkpt lat="45.91217913968211" lon="10.205181921662767"><ele>365.33333333333337</ele><time>2026-05-03T19:19:50Z</time></trkpt><trkpt lat="45.91223953629624" lon="10.205252091465184"><ele>366.6666666666667</ele><time>2026-05-03T19:19:54Z</time></trkpt><trkpt lat="45.9123095241289" lon="10.205310369351647"><ele>368.0</ele><time>2026-05-03T19:19:57Z</time></trkpt><trkpt lat="45.91235266345724" lon="10.205387113769723"><ele>368.0</ele><time>2026-05-03T19:19:59Z</time></trkpt><trkpt lat="45.912424661873565" lon="10.205424139650457"><ele>368.0</ele><time>2026-05-03T19:20:02Z</time></trkpt><trkpt lat="45.91247987976245" lon="10.205497175810699"><ele>368.0</ele><time>2026-05-03T19:20:05Z</time></trkpt><trkpt lat="45.91253797960925" lon="10.205569647743644"><ele>368.0</ele><time>2026-05-03T19:20:08Z</time></trkpt><trkpt lat="45.912584965557706" lon="10.205632511063744"><ele>368.0</ele><time>2026-05-03T19:20:10Z</time></trkpt><trkpt lat="45.91264342883313" lon="10.205685026068737"><ele>368.0</ele><time>2026-05-03T19:20:12Z</time></trkpt><trkpt lat="45.91269310126767" lon="10.20574163112826"><ele>368.0</ele><time>2026-05-03T19:20:14Z</time></trkpt><trkpt lat="45.91274870905439" lon="10.205786178046504"><ele>369.83333333333337</ele><time>2026-05-03T19:20:17Z</time></trkpt><trkpt lat="45.91282422213162" lon="10.205847113389655"><ele>371.6666666666667</ele><time>2026-05-03T19:20:20Z</time></trkpt><trkpt lat="45.91288378692229" lon="10.205957750437515"><ele>373.5</ele><time>2026-05-03T19:20:23Z</time></trkpt><trkpt lat="45.91294121530797" lon="10.206055637617059"><ele>375.3333333333333</ele><time>2026-05-03T19:20:26Z</time></trkpt><trkpt lat="45.912998494829566" lon="10.206136985349875"><ele>377.16666666666663</ele><time>2026-05-03T19:20:29Z</time></trkpt><trkpt lat="45.913062878562755" lon="10.206223200473053"><ele>379.0</ele><time>2026-05-03T19:20:32Z</time></trkpt><trkpt lat="45.913128389259654" lon="10.206319692605597"><ele>379.0</ele><time>2026-05-03T19:20:35Z</time></trkpt><trkpt lat="45.913167382604726" lon="10.206392724460025"><ele>379.0</ele><time>2026-05-03T19:20:37Z</time></trkpt><trkpt lat="45.9132183459589" lon="10.206459565040664"><ele>379.0</ele><time>2026-05-03T19:20:39Z</time></trkpt><trkpt lat="45.91327542690026" lon="10.206514136004538"><ele>379.0</ele><time>2026-05-03T19:20:41.001Z</time></trkpt><trkpt lat="45.91335942230487" lon="10.20659046587721"><ele>379.0</ele><time>2026-05-03T19:20:46.001Z</time></trkpt><trkpt lat="45.9134262498872" lon="10.206663071310745"><ele>379.0</ele><time>2026-05-03T19:20:48.001Z</time></trkpt><trkpt lat="45.91349684112403" lon="10.206720931679813"><ele>381.8333333333333</ele><time>2026-05-03T19:20:50.001Z</time></trkpt><trkpt lat="45.913551324814996" lon="10.206787715520738"><ele>384.66666666666663</ele><time>2026-05-03T19:20:52.001Z</time></trkpt><trkpt lat="45.913625490429794" lon="10.206864687669812"><ele>387.5</ele><time>2026-05-03T19:20:55.001Z</time></trkpt><trkpt lat="45.91370025275229" lon="10.206886159564535"><ele>390.3333333333333</ele><time>2026-05-03T19:20:59.001Z</time></trkpt><trkpt lat="45.91377792631388" lon="10.20693062581343"><ele>393.1666666666667</ele><time>2026-05-03T19:21:03.001Z</time></trkpt><trkpt lat="45.91381892589063" lon="10.207015859134756"><ele>396.0</ele><time>2026-05-03T19:21:05.001Z</time></trkpt><trkpt lat="45.9138674669633" lon="10.207081355421153"><ele>396.0</ele><time>2026-05-03T19:21:07.001Z</time></trkpt><trkpt lat="45.913921078508814" lon="10.207137424231414"><ele>396.0</ele><time>2026-05-03T19:21:09.001Z</time></trkpt><trkpt lat="45.91398238122099" lon="10.207192720157432"><ele>396.0</ele><time>2026-05-03T19:21:11.001Z</time></trkpt><trkpt lat="45.91404510476881" lon="10.207250076034999"><ele>396.0</ele><time>2026-05-03T19:21:13.001Z</time></trkpt><trkpt lat="45.9141149540233" lon="10.207294886842666"><ele>396.0</ele><time>2026-05-03T19:21:15.001Z</time></trkpt><trkpt lat="45.91418109165651" lon="10.207351512509458"><ele>396.0</ele><time>2026-05-03T19:21:17.001Z</time></trkpt><trkpt lat="45.91424943266787" lon="10.207367852103078"><ele>396.0</ele><time>2026-05-03T19:21:19.001Z</time></trkpt><trkpt lat="45.91431091972351" lon="10.207397703733937"><ele>395.6666666666667</ele><time>2026-05-03T19:21:22.001Z</time></trkpt><trkpt lat="45.91435805446256" lon="10.207471934300338"><ele>395.33333333333337</ele><time>2026-05-03T19:21:25.001Z</time></trkpt><trkpt lat="45.914394373952334" lon="10.207566032269003"><ele>395.0</ele><time>2026-05-03T19:21:28.001Z</time></trkpt><trkpt lat="45.914455572825965" lon="10.207626514989213"><ele>394.6666666666667</ele><time>2026-05-03T19:21:31.001Z</time></trkpt><trkpt lat="45.914538849581184" lon="10.207698595055396"><ele>394.33333333333337</ele><time>2026-05-03T19:21:34.001Z</time></trkpt><trkpt lat="45.91459867083303" lon="10.207737127307196"><ele>394.0</ele><time>2026-05-03T19:21:36.001Z</time></trkpt><trkpt lat="45.91468624159302" lon="10.207792759111467"><ele>394.00000000000006</ele><time>2026-05-03T19:21:39.001Z</time></trkpt><trkpt lat="45.91475731303519" lon="10.20783945405043"><ele>394.0</ele><time>2026-05-03T19:21:42.001Z</time></trkpt><trkpt lat="45.9148177392066" lon="10.20789917142757"><ele>394.0</ele><time>2026-05-03T19:21:45.001Z</time></trkpt><trkpt lat="45.9148893100062" lon="10.207949137922299"><ele>394.0</ele><time>2026-05-03T19:21:48.001Z</time></trkpt><trkpt lat="45.91494528566503" lon="10.208034858178069"><ele>394.00000000000006</ele><time>2026-05-03T19:21:51.001Z</time></trkpt><trkpt lat="45.915012603282534" lon="10.2080477462694"><ele>394.0</ele><time>2026-05-03T19:21:56.001Z</time></trkpt><trkpt lat="45.91509961386912" lon="10.208053967997374"><ele>394.50000000000006</ele><time>2026-05-03T19:22:01.001Z</time></trkpt><trkpt lat="45.91518574473435" lon="10.208069039990061"><ele>395.0</ele><time>2026-05-03T19:22:04.001Z</time></trkpt><trkpt lat="45.91527328700029" lon="10.20810617417127"><ele>395.5</ele><time>2026-05-03T19:22:07.001Z</time></trkpt><trkpt lat="45.91533787028662" lon="10.208131881135486"><ele>396.0</ele><time>2026-05-03T19:22:13.001Z</time></trkpt><trkpt lat="45.9154042486511" lon="10.208198245815138"><ele>396.50000000000006</ele><time>2026-05-03T19:25:07Z</time></trkpt><trkpt lat="45.915467638194755" lon="10.208229041645813"><ele>397.0</ele><time>2026-05-03T19:25:10Z</time></trkpt><trkpt lat="45.915545134254344" lon="10.208276673744455"><ele>397.00000000000006</ele><time>2026-05-03T19:25:13Z</time></trkpt><trkpt lat="45.91562980752904" lon="10.208327838235704"><ele>397.0</ele><time>2026-05-03T19:25:16Z</time></trkpt><trkpt lat="45.915692951907" lon="10.20837816930355"><ele>397.0</ele><time>2026-05-03T19:25:20Z</time></trkpt><trkpt lat="45.91576276036097" lon="10.208442839405286"><ele>397.0</ele><time>2026-05-03T19:25:23Z</time></trkpt><trkpt lat="45.91583905253745" lon="10.208508595698685"><ele>397.00000000000006</ele><time>2026-05-03T19:25:26Z</time></trkpt><trkpt lat="45.9159126457928" lon="10.20856363156596"><ele>397.0</ele><time>2026-05-03T19:25:29Z</time></trkpt><trkpt lat="45.915975713025794" lon="10.208620570449364"><ele>405.2857142857143</ele><time>2026-05-03T19:25:33Z</time></trkpt><trkpt lat="45.916023280553226" lon="10.208713157077776"><ele>413.57142857142856</ele><time>2026-05-03T19:25:37.001Z</time></trkpt><trkpt lat="45.916068924415015" lon="10.208644533604923"><ele>421.8571428571429</ele><time>2026-05-03T19:25:41.001Z</time></trkpt><trkpt lat="45.916046283051216" lon="10.208554921631098"><ele>430.1428571428571</ele><time>2026-05-03T19:25:45.001Z</time></trkpt><trkpt lat="45.91603511123247" lon="10.20843656665447"><ele>438.42857142857144</ele><time>2026-05-03T19:25:49.001Z</time></trkpt><trkpt lat="45.91604247797793" lon="10.208336269310779"><ele>446.7142857142857</ele><time>2026-05-03T19:25:54.001Z</time></trkpt><trkpt lat="45.91604278100756" lon="10.20822842189076"><ele>455.0</ele><time>2026-05-03T19:25:58.998Z</time></trkpt><trkpt lat="45.916037688527375" lon="10.208135560030328"><ele>454.99999999999994</ele><time>2026-05-03T19:26:01.998Z</time></trkpt><trkpt lat="45.916063756183696" lon="10.208026123987224"><ele>455.0</ele><time>2026-05-03T19:26:07.999Z</time></trkpt><trkpt lat="45.91612946729948" lon="10.208086466236354"><ele>455.0</ele><time>2026-05-03T19:26:28Z</time></trkpt><trkpt lat="45.91616428329619" lon="10.208194091686426"><ele>455.0</ele><time>2026-05-03T19:26:32Z</time></trkpt><trkpt lat="45.91619878688236" lon="10.208283902727569"><ele>454.99999999999994</ele><time>2026-05-03T19:26:35Z</time></trkpt><trkpt lat="45.91624190751332" lon="10.208377136899962"><ele>455.0</ele><time>2026-05-03T19:26:39Z</time></trkpt><trkpt lat="45.91627761316678" lon="10.208461194780623"><ele>455.0</ele><time>2026-05-03T19:26:42Z</time></trkpt><trkpt lat="45.91631765504556" lon="10.20853395490723"><ele>455.0</ele><time>2026-05-03T19:26:45Z</time></trkpt><trkpt lat="45.916352102342195" lon="10.208632375001239"><ele>455.0</ele><time>2026-05-03T19:26:49Z</time></trkpt><trkpt lat="45.91639175610328" lon="10.208705349893316"><ele>455.0</ele><time>2026-05-03T19:26:55Z</time></trkpt><trkpt lat="45.916439045777494" lon="10.20864264814789"><ele>455.0</ele><time>2026-05-03T19:26:59Z</time></trkpt><trkpt lat="45.91642698013108" lon="10.208526322857397"><ele>455.0</ele><time>2026-05-03T19:27:03Z</time></trkpt><trkpt lat="45.9164171095671" lon="10.208419817500388"><ele>455.0</ele><time>2026-05-03T19:27:08Z</time></trkpt><trkpt lat="45.91645114983046" lon="10.20834287401865"><ele>454.99999999999994</ele><time>2026-05-03T19:27:13Z</time></trkpt><trkpt lat="45.91644558312406" lon="10.208235406872566"><ele>455.0</ele><time>2026-05-03T19:27:16Z</time></trkpt><trkpt lat="45.91646552495049" lon="10.208102499804383"><ele>455.0</ele><time>2026-05-03T19:27:19Z</time></trkpt><trkpt lat="45.91648002238826" lon="10.208000022557433"><ele>455.0</ele><time>2026-05-03T19:27:22Z</time></trkpt><trkpt lat="45.916478755151125" lon="10.207899683791961"><ele>454.99999999999994</ele><time>2026-05-03T19:27:25Z</time></trkpt><trkpt lat="45.916488944076434" lon="10.207800766924665"><ele>455.0</ele><time>2026-05-03T19:27:31.001Z</time></trkpt><trkpt lat="45.916557233507866" lon="10.207919908339825"><ele>455.0</ele><time>2026-05-03T19:27:50.001Z</time></trkpt><trkpt lat="45.916577674675715" lon="10.208007430618277"><ele>455.0</ele><time>2026-05-03T19:27:53.001Z</time></trkpt><trkpt lat="45.91659537290111" lon="10.208097560780757"><ele>455.0</ele><time>2026-05-03T19:27:56.001Z</time></trkpt><trkpt lat="45.916616321361786" lon="10.20818422858987"><ele>455.0</ele><time>2026-05-03T19:27:59.001Z</time></trkpt><trkpt lat="45.91665407228083" lon="10.20826610364338"><ele>455.0</ele><time>2026-05-03T19:28:03.001Z</time></trkpt><trkpt lat="45.91666160682006" lon="10.208362174733685"><ele>455.0</ele><time>2026-05-03T19:28:06.001Z</time></trkpt><trkpt lat="45.916705448451474" lon="10.20845050566329"><ele>455.0</ele><time>2026-05-03T19:28:10Z</time></trkpt><trkpt lat="45.916750843627696" lon="10.208540665031643"><ele>454.99999999999994</ele><time>2026-05-03T19:28:14Z</time></trkpt><trkpt lat="45.916762981042645" lon="10.208664924422026"><ele>455.0</ele><time>2026-05-03T19:28:18Z</time></trkpt><trkpt lat="45.91674355217146" lon="10.208769901061457"><ele>455.0</ele><time>2026-05-03T19:28:21Z</time></trkpt><trkpt lat="45.91673925110655" lon="10.208865518910113"><ele>455.0</ele><time>2026-05-03T19:28:24Z</time></trkpt><trkpt lat="45.916719852091624" lon="10.208974723282836"><ele>454.99999999999994</ele><time>2026-05-03T19:28:28Z</time></trkpt><trkpt lat="45.91672143913966" lon="10.209089045994537"><ele>455.0</ele><time>2026-05-03T19:28:32Z</time></trkpt><trkpt lat="45.916754664044376" lon="10.209187650806326"><ele>465.0</ele><time>2026-05-03T19:28:36.001Z</time></trkpt><trkpt lat="45.916793477611186" lon="10.20926939356676"><ele>475.0</ele><time>2026-05-03T19:28:40.001Z</time></trkpt><trkpt lat="45.916837981097856" lon="10.209350846389281"><ele>485.0</ele><time>2026-05-03T19:28:45.001Z</time></trkpt><trkpt lat="45.91689850717853" lon="10.209403337957864"><ele>495.0</ele><time>2026-05-03T19:28:49.001Z</time></trkpt><trkpt lat="45.91696260143068" lon="10.20944740017532"><ele>505.0</ele><time>2026-05-03T19:28:53.001Z</time></trkpt><trkpt lat="45.91703340227459" lon="10.20946320067051"><ele>515.0</ele><time>2026-05-03T19:28:57.001Z</time></trkpt><trkpt lat="45.91711274124778" lon="10.209485545520751"><ele>525.0</ele><time>2026-05-03T19:29:00.001Z</time></trkpt><trkpt lat="45.917179378959034" lon="10.209510760128994"><ele>525.0</ele><time>2026-05-03T19:29:03.001Z</time></trkpt><trkpt lat="45.917247425730146" lon="10.209564661077541"><ele>525.0</ele><time>2026-05-03T19:29:07.001Z</time></trkpt><trkpt lat="45.917282847406284" lon="10.209642237485935"><ele>525.0</ele><time>2026-05-03T19:29:09.001Z</time></trkpt><trkpt lat="45.917322649577116" lon="10.209744083028637"><ele>525.0</ele><time>2026-05-03T19:29:13.001Z</time></trkpt><trkpt lat="45.917359519230665" lon="10.209830180593402"><ele>525.0</ele><time>2026-05-03T19:29:16.001Z</time></trkpt><trkpt lat="45.917420478363105" lon="10.209906010999712"><ele>525.0</ele><time>2026-05-03T19:29:20.001Z</time></trkpt><trkpt lat="45.917491223373204" lon="10.209934419233731"><ele>525.0</ele><time>2026-05-03T19:29:24.001Z</time></trkpt><trkpt lat="45.917547765499926" lon="10.209979743079026"><ele>530.8571428571429</ele><time>2026-05-03T19:29:28.001Z</time></trkpt><trkpt lat="45.91756539249007" lon="10.210082075505168"><ele>536.7142857142858</ele><time>2026-05-03T19:29:32.001Z</time></trkpt><trkpt lat="45.91757263969366" lon="10.21018979388386"><ele>542.5714285714286</ele><time>2026-05-03T19:29:36.001Z</time></trkpt><trkpt lat="45.91758990551894" lon="10.210281745970235"><ele>548.4285714285714</ele><time>2026-05-03T19:29:40.001Z</time></trkpt><trkpt lat="45.917616252032865" lon="10.210369452152209"><ele>554.2857142857143</ele><time>2026-05-03T19:29:44.001Z</time></trkpt><trkpt lat="45.91767119675735" lon="10.210454906421331"><ele>560.1428571428571</ele><time>2026-05-03T19:29:48.001Z</time></trkpt><trkpt lat="45.91770323779418" lon="10.210537747755556"><ele>566.0</ele><time>2026-05-03T19:29:51.001Z</time></trkpt><trkpt lat="45.917749488804674" lon="10.210625944497028"><ele>562.8333333333333</ele><time>2026-05-03T19:29:56.001Z</time></trkpt><trkpt lat="45.917763512264074" lon="10.210727554466523"><ele>559.6666666666666</ele><time>2026-05-03T19:30:00.001Z</time></trkpt><trkpt lat="45.917759188647146" lon="10.210843926339527"><ele>556.5</ele><time>2026-05-03T19:30:04.002Z</time></trkpt><trkpt lat="45.91777292078032" lon="10.210949018782024"><ele>553.3333333333334</ele><time>2026-05-03T19:30:08Z</time></trkpt><trkpt lat="45.917809275682885" lon="10.211037972067263"><ele>550.1666666666667</ele><time>2026-05-03T19:30:12Z</time></trkpt><trkpt lat="45.917854914841485" lon="10.211136212485325"><ele>547.0</ele><time>2026-05-03T19:30:16Z</time></trkpt><trkpt lat="45.91791785766095" lon="10.211205430872258"><ele>547.0</ele><time>2026-05-03T19:30:20Z</time></trkpt><trkpt lat="45.91798157685237" lon="10.211227275995395"><ele>547.0</ele><time>2026-05-03T19:30:24Z</time></trkpt><trkpt lat="45.918037249706074" lon="10.21127945670707"><ele>547.0</ele><time>2026-05-03T19:30:28Z</time></trkpt><trkpt lat="45.91806281156651" lon="10.211376496258774"><ele>547.0</ele><time>2026-05-03T19:30:32Z</time></trkpt><trkpt lat="45.91808611509471" lon="10.211488109692747"><ele>547.0</ele><time>2026-05-03T19:30:37Z</time></trkpt><trkpt lat="45.918112461802814" lon="10.211593890541646"><ele>547.0</ele><time>2026-05-03T19:30:41Z</time></trkpt><trkpt lat="45.918161132354655" lon="10.211690577505403"><ele>547.0</ele><time>2026-05-03T19:30:45Z</time></trkpt><trkpt lat="45.91819797667504" lon="10.2117682733404"><ele>549.2857142857142</ele><time>2026-05-03T19:30:48Z</time></trkpt><trkpt lat="45.91824560256748" lon="10.211834842747715"><ele>551.5714285714286</ele><time>2026-05-03T19:30:52Z</time></trkpt><trkpt lat="45.91829331051505" lon="10.211896869866115"><ele>553.8571428571429</ele><time>2026-05-03T19:30:55.001Z</time></trkpt><trkpt lat="45.918351222909386" lon="10.21196855549976"><ele>556.1428571428571</ele><time>2026-05-03T19:30:59.001Z</time></trkpt><trkpt lat="45.91841220370183" lon="10.212045596756194"><ele>558.4285714285714</ele><time>2026-05-03T19:31:03.001Z</time></trkpt><trkpt lat="45.918475161672276" lon="10.21211881617553"><ele>560.7142857142857</ele><time>2026-05-03T19:31:07.001Z</time></trkpt><trkpt lat="45.918519680413105" lon="10.212184298279707"><ele>563.0</ele><time>2026-05-03T19:31:10.001Z</time></trkpt><trkpt lat="45.918571355930624" lon="10.212268398332728"><ele>555.6666666666666</ele><time>2026-05-03T19:31:16.001Z</time></trkpt><trkpt lat="45.918619607666024" lon="10.212360082804903"><ele>548.3333333333333</ele><time>2026-05-03T19:31:20.001Z</time></trkpt><trkpt lat="45.918676721140365" lon="10.212466854943356"><ele>541.0</ele><time>2026-05-03T19:31:24.001Z</time></trkpt><trkpt lat="45.91873535551889" lon="10.212533747337991"><ele>533.6666666666666</ele><time>2026-05-03T19:31:27.001Z</time></trkpt><trkpt lat="45.918802097293316" lon="10.212583328022527"><ele>526.3333333333334</ele><time>2026-05-03T19:31:30.001Z</time></trkpt><trkpt lat="45.91887215853898" lon="10.212627307522474"><ele>519.0</ele><time>2026-05-03T19:31:33.001Z</time></trkpt><trkpt lat="45.91895023100458" lon="10.212646120779928"><ele>519.0</ele><time>2026-05-03T19:31:36.001Z</time></trkpt><trkpt lat="45.91901896536564" lon="10.212686417142995"><ele>519.0</ele><time>2026-05-03T19:31:38.001Z</time></trkpt><trkpt lat="45.91906338351172" lon="10.212764665619675"><ele>519.0</ele><time>2026-05-03T19:31:41.001Z</time></trkpt><trkpt lat="45.91910571499116" lon="10.212865420394344"><ele>519.0</ele><time>2026-05-03T19:31:44.001Z</time></trkpt><trkpt lat="45.919159094985986" lon="10.212953408601258"><ele>519.0</ele><time>2026-05-03T19:31:47.001Z</time></trkpt><trkpt lat="45.91924239610852" lon="10.212995643614715"><ele>519.0</ele><time>2026-05-03T19:31:50.001Z</time></trkpt><trkpt lat="45.91931491367865" lon="10.21305004311893"><ele>516.8571428571429</ele><time>2026-05-03T19:31:53.001Z</time></trkpt><trkpt lat="45.91938775163052" lon="10.213088740116934"><ele>514.7142857142857</ele><time>2026-05-03T19:31:57.001Z</time></trkpt><trkpt lat="45.91945491933178" lon="10.213147556802125"><ele>512.5714285714286</ele><time>2026-05-03T19:32:00.001Z</time></trkpt><trkpt lat="45.91952827939089" lon="10.2132068854589"><ele>510.42857142857144</ele><time>2026-05-03T19:32:03.001Z</time></trkpt><trkpt lat="45.919593888601746" lon="10.213244699269628"><ele>508.2857142857143</ele><time>2026-05-03T19:32:06.001Z</time></trkpt><trkpt lat="45.91965696247066" lon="10.21323520972596"><ele>506.1428571428571</ele><time>2026-05-03T19:32:10.001Z</time></trkpt><trkpt lat="45.91971571529132" lon="10.21320255036254"><ele>504.0</ele><time>2026-05-03T19:32:13.001Z</time></trkpt><trkpt lat="45.919793375164815" lon="10.213166757140623"><ele>504.0</ele><time>2026-05-03T19:32:17Z</time></trkpt><trkpt lat="45.919873423939535" lon="10.213156476472069"><ele>504.0</ele><time>2026-05-03T19:32:21Z</time></trkpt><trkpt lat="45.91994163971774" lon="10.213173465405289"><ele>504.0</ele><time>2026-05-03T19:32:25Z</time></trkpt><trkpt lat="45.92001045193673" lon="10.21320148949284"><ele>504.0</ele><time>2026-05-03T19:32:28Z</time></trkpt><trkpt lat="45.9200778804891" lon="10.213228541661692"><ele>504.0</ele><time>2026-05-03T19:32:31Z</time></trkpt><trkpt lat="45.92014401575991" lon="10.213240885134654"><ele>504.0</ele><time>2026-05-03T19:32:34Z</time></trkpt><trkpt lat="45.9202072326074" lon="10.213244281391136"><ele>504.0</ele><time>2026-05-03T19:32:37Z</time></trkpt><trkpt lat="45.92028433983783" lon="10.213238502997852"><ele>504.5</ele><time>2026-05-03T19:32:40Z</time></trkpt><trkpt lat="45.92036232788727" lon="10.213250770075812"><ele>505.0</ele><time>2026-05-03T19:32:43Z</time></trkpt><trkpt lat="45.920452420595254" lon="10.21324546126617"><ele>505.5</ele><time>2026-05-03T19:32:46Z</time></trkpt><trkpt lat="45.92053361765875" lon="10.21323610687795"><ele>506.0</ele><time>2026-05-03T19:32:49Z</time></trkpt><trkpt lat="45.920619044539286" lon="10.213224081654486"><ele>506.5</ele><time>2026-05-03T19:32:52Z</time></trkpt><trkpt lat="45.92068207709634" lon="10.213211506980063"><ele>507.0</ele><time>2026-05-03T19:33:16.001Z</time></trkpt><trkpt lat="45.9207640137729" lon="10.213205211717085"><ele>507.0</ele><time>2026-05-03T19:33:20.001Z</time></trkpt><trkpt lat="45.92083389459245" lon="10.21317493913382"><ele>507.0</ele><time>2026-05-03T19:33:23.001Z</time></trkpt><trkpt lat="45.920898738813456" lon="10.213125849377146"><ele>507.0</ele><time>2026-05-03T19:33:26.001Z</time></trkpt><trkpt lat="45.92097739468572" lon="10.213094662451319"><ele>507.0</ele><time>2026-05-03T19:33:29.001Z</time></trkpt><trkpt lat="45.92104060494843" lon="10.213067920110612"><ele>507.0</ele><time>2026-05-03T19:33:32.001Z</time></trkpt><trkpt lat="45.921121089248345" lon="10.21303661394562"><ele>507.0</ele><time>2026-05-03T19:33:38.001Z</time></trkpt><trkpt lat="45.92118518656737" lon="10.213004889314876"><ele>507.0</ele><time>2026-05-03T19:33:41.001Z</time></trkpt><trkpt lat="45.921247628782325" lon="10.212959594433762"><ele>513.5</ele><time>2026-05-03T19:33:44.001Z</time></trkpt><trkpt lat="45.92132235896603" lon="10.212946809987887"><ele>520.0</ele><time>2026-05-03T19:33:47.001Z</time></trkpt><trkpt lat="45.9213900201608" lon="10.212953264832132"><ele>526.5</ele><time>2026-05-03T19:33:50.001Z</time></trkpt><trkpt lat="45.921478812875" lon="10.212972028988537"><ele>533.0</ele><time>2026-05-03T19:33:54.001Z</time></trkpt><trkpt lat="45.921549333046734" lon="10.212962513235322"><ele>539.5</ele><time>2026-05-03T19:33:57.001Z</time></trkpt><trkpt lat="45.92162064720224" lon="10.212915380203661"><ele>546.0</ele><time>2026-05-03T19:34:00.001Z</time></trkpt><trkpt lat="45.921696023522024" lon="10.212882418032597"><ele>546.0</ele><time>2026-05-03T19:34:04.001Z</time></trkpt><trkpt lat="45.92174886404127" lon="10.212819257010807"><ele>546.0</ele><time>2026-05-03T19:34:08.001Z</time></trkpt><trkpt lat="45.92180875415228" lon="10.212776575393045"><ele>546.0</ele><time>2026-05-03T19:34:12.001Z</time></trkpt><trkpt lat="45.92187696411524" lon="10.212748604235747"><ele>546.0</ele><time>2026-05-03T19:34:15.001Z</time></trkpt><trkpt lat="45.92195915505184" lon="10.212766008819896"><ele>546.0</ele><time>2026-05-03T19:34:19.001Z</time></trkpt><trkpt lat="45.922026268867754" lon="10.212787579588367"><ele>546.0</ele><time>2026-05-03T19:34:22Z</time></trkpt><trkpt lat="45.922100942435506" lon="10.212783467418515"><ele>546.0</ele><time>2026-05-03T19:34:25Z</time></trkpt><trkpt lat="45.92216561244266" lon="10.212765343866852"><ele>544.2857142857143</ele><time>2026-05-03T19:34:28Z</time></trkpt><trkpt lat="45.92222939898235" lon="10.21274993153378"><ele>542.5714285714286</ele><time>2026-05-03T19:34:33Z</time></trkpt><trkpt lat="45.92229487037775" lon="10.212746144132394"><ele>540.8571428571429</ele><time>2026-05-03T19:34:38Z</time></trkpt><trkpt lat="45.92235223291881" lon="10.212807140135757"><ele>539.1428571428571</ele><time>2026-05-03T19:34:44Z</time></trkpt><trkpt lat="45.92236565334374" lon="10.212903205996753"><ele>537.4285714285714</ele><time>2026-05-03T19:34:49Z</time></trkpt><trkpt lat="45.92234833015836" lon="10.21299045919073"><ele>535.7142857142858</ele><time>2026-05-03T19:34:54Z</time></trkpt><trkpt lat="45.92231127462697" lon="10.213084864252412"><ele>534.0</ele><time>2026-05-03T19:34:58Z</time></trkpt><trkpt lat="45.92228071008427" lon="10.213169047784909"><ele>534.0000000000001</ele><time>2026-05-03T19:35:01Z</time></trkpt><trkpt lat="45.92224822387779" lon="10.213255524729703"><ele>534.0</ele><time>2026-05-03T19:35:04Z</time></trkpt><trkpt lat="45.922210349075584" lon="10.213355277407802"><ele>534.0</ele><time>2026-05-03T19:35:07.001Z</time></trkpt><trkpt lat="45.92217865291285" lon="10.213468345166282"><ele>534.0</ele><time>2026-05-03T19:35:10.001Z</time></trkpt><trkpt lat="45.922145415299894" lon="10.213569472729057"><ele>534.0</ele><time>2026-05-03T19:35:14.001Z</time></trkpt><trkpt lat="45.92212589252892" lon="10.21366027851145"><ele>534.0000000000001</ele><time>2026-05-03T19:35:18.001Z</time></trkpt><trkpt lat="45.922107376711" lon="10.213757806595302"><ele>534.0</ele><time>2026-05-03T19:35:22.001Z</time></trkpt><trkpt lat="45.9220828457773" lon="10.213846187716353"><ele>534.0000000000001</ele><time>2026-05-03T19:35:25.001Z</time></trkpt><trkpt lat="45.9220488729585" lon="10.213941518250353"><ele>534.0</ele><time>2026-05-03T19:35:31.001Z</time></trkpt><trkpt lat="45.922004958205676" lon="10.214031267542317"><ele>534.0</ele><time>2026-05-03T19:35:36.001Z</time></trkpt><trkpt lat="45.92197060173987" lon="10.214116358029502"><ele>534.0</ele><time>2026-05-03T19:35:40.001Z</time></trkpt><trkpt lat="45.92192884216701" lon="10.214190487797099"><ele>534.0</ele><time>2026-05-03T19:35:44.001Z</time></trkpt><trkpt lat="45.921879718247936" lon="10.214258282049549"><ele>534.0000000000001</ele><time>2026-05-03T19:35:48.001Z</time></trkpt><trkpt lat="45.92183581499685" lon="10.214355093139556"><ele>534.0</ele><time>2026-05-03T19:35:53.001Z</time></trkpt><trkpt lat="45.921803804833104" lon="10.214441271894431"><ele>531.8571428571429</ele><time>2026-05-03T19:35:57.001Z</time></trkpt><trkpt lat="45.92177609145982" lon="10.21454037459212"><ele>529.7142857142858</ele><time>2026-05-03T19:36:00.001Z</time></trkpt><trkpt lat="45.921742850770514" lon="10.214643462102666"><ele>527.5714285714286</ele><time>2026-05-03T19:36:03.001Z</time></trkpt><trkpt lat="45.921717263811736" lon="10.214733812029678"><ele>525.4285714285714</ele><time>2026-05-03T19:36:05.001Z</time></trkpt><trkpt lat="45.92169503496235" lon="10.214824009090723"><ele>523.2857142857142</ele><time>2026-05-03T19:36:07.001Z</time></trkpt><trkpt lat="45.92167178247026" lon="10.214938503852549"><ele>521.1428571428571</ele><time>2026-05-03T19:36:10.001Z</time></trkpt><trkpt lat="45.921664669214664" lon="10.215035862792151"><ele>519.0</ele><time>2026-05-03T19:36:13.001Z</time></trkpt><trkpt lat="45.921674450340525" lon="10.215129470625708"><ele>519.0</ele><time>2026-05-03T19:36:16.001Z</time></trkpt><trkpt lat="45.92168779890241" lon="10.215235286500109"><ele>519.0</ele><time>2026-05-03T19:36:18.001Z</time></trkpt><trkpt lat="45.92170691010769" lon="10.215341242999372"><ele>519.0</ele><time>2026-05-03T19:36:21.001Z</time></trkpt><trkpt lat="45.92172696960848" lon="10.21543502027759"><ele>519.0</ele><time>2026-05-03T19:36:24.001Z</time></trkpt><trkpt lat="45.92172977519914" lon="10.215533873056184"><ele>519.0</ele><time>2026-05-03T19:36:27Z</time></trkpt><trkpt lat="45.921741241429565" lon="10.21564318986979"><ele>519.0</ele><time>2026-05-03T19:36:31Z</time></trkpt><trkpt lat="45.92175404592593" lon="10.215744225945649"><ele>519.0</ele><time>2026-05-03T19:36:35Z</time></trkpt><trkpt lat="45.921758755560134" lon="10.215843568159977"><ele>519.1666666666666</ele><time>2026-05-03T19:36:39Z</time></trkpt><trkpt lat="45.9217681706951" lon="10.215952772655807"><ele>519.3333333333334</ele><time>2026-05-03T19:36:43Z</time></trkpt><trkpt lat="45.92176900342079" lon="10.216057124012893"><ele>519.5</ele><time>2026-05-03T19:36:48Z</time></trkpt><trkpt lat="45.9217288631147" lon="10.216167070058697"><ele>519.6666666666667</ele><time>2026-05-03T19:36:51Z</time></trkpt><trkpt lat="45.92169840141654" lon="10.216262974624351"><ele>519.8333333333334</ele><time>2026-05-03T19:36:56Z</time></trkpt><trkpt lat="45.9216762122801" lon="10.216352421707477"><ele>520.0</ele><time>2026-05-03T19:36:59Z</time></trkpt><trkpt lat="45.92168135794492" lon="10.216460864651687"><ele>522.7142857142858</ele><time>2026-05-03T19:37:03Z</time></trkpt><trkpt lat="45.92171280587037" lon="10.216543686406856"><ele>525.4285714285714</ele><time>2026-05-03T19:37:07Z</time></trkpt><trkpt lat="45.921748827247875" lon="10.216639164664223"><ele>528.1428571428571</ele><time>2026-05-03T19:37:12Z</time></trkpt><trkpt lat="45.921802198928326" lon="10.216706697714622"><ele>530.8571428571429</ele><time>2026-05-03T19:37:17.001Z</time></trkpt><trkpt lat="45.92188018069789" lon="10.216715911622194"><ele>533.5714285714286</ele><time>2026-05-03T19:37:23.001Z</time></trkpt><trkpt lat="45.9219566395154" lon="10.216713307883841"><ele>536.2857142857143</ele><time>2026-05-03T19:37:26.001Z</time></trkpt><trkpt lat="45.922029305360134" lon="10.216724456828498"><ele>539.0</ele><time>2026-05-03T19:37:29.001Z</time></trkpt><trkpt lat="45.922092697894" lon="10.21677498062342"><ele>545.8571428571429</ele><time>2026-05-03T19:37:35.001Z</time></trkpt><trkpt lat="45.922106962118576" lon="10.216864926302765"><ele>552.7142857142858</ele><time>2026-05-03T19:37:39.001Z</time></trkpt><trkpt lat="45.92210537294285" lon="10.216968797459723"><ele>559.5714285714286</ele><time>2026-05-03T19:37:43.001Z</time></trkpt><trkpt lat="45.92209479810208" lon="10.217062031224945"><ele>566.4285714285714</ele><time>2026-05-03T19:37:46.001Z</time></trkpt><trkpt lat="45.92208598279002" lon="10.217168207646054"><ele>573.2857142857143</ele><time>2026-05-03T19:37:49.001Z</time></trkpt><trkpt lat="45.92208121720227" lon="10.21726958918612"><ele>580.1428571428571</ele><time>2026-05-03T19:37:52.001Z</time></trkpt><trkpt lat="45.92210797874404" lon="10.217371993350902"><ele>587.0</ele><time>2026-05-03T19:37:56.001Z</time></trkpt><trkpt lat="45.92216360954402" lon="10.21744714142141"><ele>587.0</ele><time>2026-05-03T19:38:01.001Z</time></trkpt><trkpt lat="45.9222355519576" lon="10.21748495971233"><ele>587.0</ele><time>2026-05-03T19:38:05.001Z</time></trkpt><trkpt lat="45.92227976459873" lon="10.217568839013337"><ele>587.0</ele><time>2026-05-03T19:38:09.001Z</time></trkpt><trkpt lat="45.92228806510857" lon="10.217659351281673"><ele>587.0</ele><time>2026-05-03T19:38:12.001Z</time></trkpt><trkpt lat="45.922305130220145" lon="10.217775371455028"><ele>587.0</ele><time>2026-05-03T19:38:16.001Z</time></trkpt><trkpt lat="45.9223270941838" lon="10.21789106572055"><ele>587.0</ele><time>2026-05-03T19:38:20.001Z</time></trkpt><trkpt lat="45.92234098823113" lon="10.217984289289475"><ele>587.0</ele><time>2026-05-03T19:38:24.001Z</time></trkpt><trkpt lat="45.922352560596636" lon="10.218078602795062"><ele>584.1428571428571</ele><time>2026-05-03T19:38:27.001Z</time></trkpt><trkpt lat="45.92236686064823" lon="10.218174634824353"><ele>581.2857142857143</ele><time>2026-05-03T19:38:30.001Z</time></trkpt><trkpt lat="45.92237869196291" lon="10.218288918985417"><ele>578.4285714285714</ele><time>2026-05-03T19:38:34Z</time></trkpt><trkpt lat="45.922389673369075" lon="10.218388679508822"><ele>575.5714285714286</ele><time>2026-05-03T19:38:39Z</time></trkpt><trkpt lat="45.922415251461416" lon="10.218495137932427"><ele>572.7142857142858</ele><time>2026-05-03T19:38:47Z</time></trkpt><trkpt lat="45.92244309529814" lon="10.218581688469767"><ele>569.8571428571429</ele><time>2026-05-03T19:38:52Z</time></trkpt><trkpt lat="45.92249028110145" lon="10.218667787431297"><ele>567.0</ele><time>2026-05-03T19:38:57Z</time></trkpt><trkpt lat="45.922526331781086" lon="10.218744084682484"><ele>567.0</ele><time>2026-05-03T19:39:02Z</time></trkpt><trkpt lat="45.922546992906305" lon="10.218835590692725"><ele>567.0</ele><time>2026-05-03T19:39:06Z</time></trkpt><trkpt lat="45.922554492468976" lon="10.218928428863334"><ele>567.0</ele><time>2026-05-03T19:39:10Z</time></trkpt><trkpt lat="45.922586841991745" lon="10.219021100533975"><ele>567.0</ele><time>2026-05-03T19:39:15Z</time></trkpt><trkpt lat="45.92263254808367" lon="10.21908959560481"><ele>567.0</ele><time>2026-05-03T19:39:20Z</time></trkpt><trkpt lat="45.9226840055548" lon="10.219176538610695"><ele>567.0</ele><time>2026-05-03T19:39:25Z</time></trkpt><trkpt lat="45.92270448231682" lon="10.21926367551438"><ele>567.0</ele><time>2026-05-03T19:39:28Z</time></trkpt><trkpt lat="45.92274154340166" lon="10.219363741822352"><ele>572.8571428571429</ele><time>2026-05-03T19:39:32Z</time></trkpt><trkpt lat="45.92277830547106" lon="10.219452644811128"><ele>578.7142857142858</ele><time>2026-05-03T19:39:35Z</time></trkpt><trkpt lat="45.92281499978014" lon="10.219551175909656"><ele>584.5714285714286</ele><time>2026-05-03T19:39:39.001Z</time></trkpt><trkpt lat="45.92284892045795" lon="10.219652195876739"><ele>590.4285714285714</ele><time>2026-05-03T19:39:43.001Z</time></trkpt><trkpt lat="45.922919760752855" lon="10.21968660630424"><ele>596.2857142857143</ele><time>2026-05-03T19:39:48.001Z</time></trkpt><trkpt lat="45.92298537933623" lon="10.219708719669592"><ele>602.1428571428571</ele><time>2026-05-03T19:39:51.001Z</time></trkpt><trkpt lat="45.923056970469005" lon="10.219747686317737"><ele>608.0</ele><time>2026-05-03T19:39:57.001Z</time></trkpt><trkpt lat="45.92312489270161" lon="10.219800912326347"><ele>601.4285714285714</ele><time>2026-05-03T19:40:01.001Z</time></trkpt><trkpt lat="45.92318630040817" lon="10.219870435516711"><ele>594.8571428571429</ele><time>2026-05-03T19:40:05.001Z</time></trkpt><trkpt lat="45.923192412656796" lon="10.219962142351905"><ele>588.2857142857143</ele><time>2026-05-03T19:40:08.001Z</time></trkpt><trkpt lat="45.92319434185872" lon="10.220058976923003"><ele>581.7142857142858</ele><time>2026-05-03T19:40:13.001Z</time></trkpt><trkpt lat="45.92318830109164" lon="10.220165026170504"><ele>575.1428571428571</ele><time>2026-05-03T19:40:18.001Z</time></trkpt><trkpt lat="45.92321645748798" lon="10.220259225922089"><ele>568.5714285714287</ele><time>2026-05-03T19:40:23.001Z</time></trkpt><trkpt lat="45.92325887435644" lon="10.220356054038618"><ele>562.0</ele><time>2026-05-03T19:40:28.001Z</time></trkpt><trkpt lat="45.92330631197857" lon="10.220424196349681"><ele>562.0</ele><time>2026-05-03T19:40:32.001Z</time></trkpt><trkpt lat="45.92334633759131" lon="10.22051531147975"><ele>562.0</ele><time>2026-05-03T19:40:36.001Z</time></trkpt><trkpt lat="45.92336609041697" lon="10.22062937267502"><ele>562.0</ele><time>2026-05-03T19:40:40Z</time></trkpt><trkpt lat="45.92337243985058" lon="10.22073875165625"><ele>562.0</ele><time>2026-05-03T19:40:44Z</time></trkpt><trkpt lat="45.923397519802975" lon="10.220827046141096"><ele>562.0</ele><time>2026-05-03T19:40:47Z</time></trkpt><trkpt lat="45.92344897578238" lon="10.220913799953005"><ele>562.0</ele><time>2026-05-03T19:40:51Z</time></trkpt><trkpt lat="45.92350675448524" lon="10.220987567836781"><ele>562.4285714285714</ele><time>2026-05-03T19:40:55Z</time></trkpt><trkpt lat="45.92355195217324" lon="10.221057472061263"><ele>562.8571428571429</ele><time>2026-05-03T19:40:59Z</time></trkpt><trkpt lat="45.92355128221743" lon="10.221160102050467"><ele>563.2857142857142</ele><time>2026-05-03T19:41:03Z</time></trkpt><trkpt lat="45.923566939176034" lon="10.221269725371796"><ele>563.7142857142858</ele><time>2026-05-03T19:41:10Z</time></trkpt><trkpt lat="45.923591356059745" lon="10.221364167220017"><ele>564.1428571428571</ele><time>2026-05-03T19:41:15Z</time></trkpt><trkpt lat="45.923623517169275" lon="10.221446728395316"><ele>564.5714285714286</ele><time>2026-05-03T19:41:20Z</time></trkpt><trkpt lat="45.92365780117056" lon="10.221542437797538"><ele>565.0</ele><time>2026-05-03T19:41:25Z</time></trkpt><trkpt lat="45.92367478007747" lon="10.221647404016009"><ele>564.9999999999999</ele><time>2026-05-03T19:41:30Z</time></trkpt><trkpt lat="45.92372738905185" lon="10.221729429088446"><ele>565.0</ele><time>2026-05-03T19:41:35Z</time></trkpt><trkpt lat="45.92379516194143" lon="10.221760837303286"><ele>565.0</ele><time>2026-05-03T19:41:40Z</time></trkpt><trkpt lat="45.92385100483025" lon="10.221809964331364"><ele>565.0</ele><time>2026-05-03T19:41:44.001Z</time></trkpt><trkpt lat="45.92389058927597" lon="10.221883009240125"><ele>565.0</ele><time>2026-05-03T19:41:48.001Z</time></trkpt><trkpt lat="45.92390941219894" lon="10.221975446087738"><ele>564.9999999999999</ele><time>2026-05-03T19:41:52.001Z</time></trkpt><trkpt lat="45.923910286555" lon="10.222089230180401"><ele>565.0</ele><time>2026-05-03T19:41:57.001Z</time></trkpt><trkpt lat="45.92392385935461" lon="10.222191971164897"><ele>564.9999999999999</ele><time>2026-05-03T19:42:01.001Z</time></trkpt><trkpt lat="45.92395658424965" lon="10.222283423068456"><ele>565.0</ele><time>2026-05-03T19:42:05.001Z</time></trkpt><trkpt lat="45.924021827470696" lon="10.222346527109638"><ele>565.0</ele><time>2026-05-03T19:42:09.001Z</time></trkpt><trkpt lat="45.924090534376404" lon="10.222405860126907"><ele>565.0</ele><time>2026-05-03T19:42:13.001Z</time></trkpt><trkpt lat="45.92415860713084" lon="10.22243869443508"><ele>565.0</ele><time>2026-05-03T19:42:17.001Z</time></trkpt><trkpt lat="45.924224511305965" lon="10.22245110857403"><ele>564.9999999999999</ele><time>2026-05-03T19:42:21.001Z</time></trkpt><trkpt lat="45.92428949696415" lon="10.222475823129688"><ele>565.0</ele><time>2026-05-03T19:42:24.001Z</time></trkpt><trkpt lat="45.92434723186571" lon="10.222560207009945"><ele>567.9999999999999</ele><time>2026-05-03T19:42:28.001Z</time></trkpt><trkpt lat="45.92438669204855" lon="10.222631409466103"><ele>571.0</ele><time>2026-05-03T19:42:31.001Z</time></trkpt><trkpt lat="45.92445183576153" lon="10.22268355814284"><ele>574.0</ele><time>2026-05-03T19:42:35.001Z</time></trkpt><trkpt lat="45.924509671234766" lon="10.222728783745552"><ele>577.0</ele><time>2026-05-03T19:42:38.001Z</time></trkpt><trkpt lat="45.92457952520004" lon="10.222781633347552"><ele>580.0</ele><time>2026-05-03T19:42:42.001Z</time></trkpt><trkpt lat="45.92464977272552" lon="10.222793332068486"><ele>582.9999999999999</ele><time>2026-05-03T19:42:46Z</time></trkpt><trkpt lat="45.92471654311257" lon="10.222827747137934"><ele>586.0</ele><time>2026-05-03T19:42:50Z</time></trkpt><trkpt lat="45.924787351537425" lon="10.22286669418272"><ele>585.9999999999999</ele><time>2026-05-03T19:42:55Z</time></trkpt><trkpt lat="45.92485517017817" lon="10.222912454182763"><ele>586.0</ele><time>2026-05-03T19:43:00Z</time></trkpt><trkpt lat="45.92491440698863" lon="10.222952772645591"><ele>586.0</ele><time>2026-05-03T19:43:05Z</time></trkpt><trkpt lat="45.924975999714185" lon="10.223004620864522"><ele>586.0</ele><time>2026-05-03T19:43:10Z</time></trkpt><trkpt lat="45.92503518134619" lon="10.223043616309633"><ele>586.0</ele><time>2026-05-03T19:43:14Z</time></trkpt><trkpt lat="45.925086055013736" lon="10.223118673774927"><ele>585.9999999999999</ele><time>2026-05-03T19:43:20Z</time></trkpt><trkpt lat="45.92515778491931" lon="10.223147012178403"><ele>586.0</ele><time>2026-05-03T19:43:24Z</time></trkpt><trkpt lat="45.92520587416744" lon="10.223211882222449"><ele>592.5714285714286</ele><time>2026-05-03T19:43:28Z</time></trkpt><trkpt lat="45.92526467389491" lon="10.223283594005743"><ele>599.1428571428571</ele><time>2026-05-03T19:43:32Z</time></trkpt><trkpt lat="45.925309248263225" lon="10.223351269499167"><ele>605.7142857142858</ele><time>2026-05-03T19:43:35Z</time></trkpt><trkpt lat="45.9253481076076" lon="10.223429917583973"><ele>612.2857142857142</ele><time>2026-05-03T19:43:38Z</time></trkpt><trkpt lat="45.92537269169834" lon="10.223517676584986"><ele>618.8571428571429</ele><time>2026-05-03T19:43:41Z</time></trkpt><trkpt lat="45.92539867976872" lon="10.22362288064068"><ele>625.4285714285714</ele><time>2026-05-03T19:43:45Z</time></trkpt><trkpt lat="45.92540801611297" lon="10.223753910123664"><ele>632.0</ele><time>2026-05-03T19:43:49Z</time></trkpt><trkpt lat="45.925413020572364" lon="10.223849393057067"><ele>632.0</ele><time>2026-05-03T19:43:52.001Z</time></trkpt><trkpt lat="45.925409610910165" lon="10.223968662025415"><ele>632.0</ele><time>2026-05-03T19:43:56.001Z</time></trkpt><trkpt lat="45.92541302287931" lon="10.224094008983686"><ele>632.0</ele><time>2026-05-03T19:44:00.001Z</time></trkpt><trkpt lat="45.92543324912854" lon="10.224205724585623"><ele>632.0</ele><time>2026-05-03T19:44:03.001Z</time></trkpt><trkpt lat="45.92546459580806" lon="10.224301040240912"><ele>632.0</ele><time>2026-05-03T19:44:06.001Z</time></trkpt><trkpt lat="45.92550238429753" lon="10.224387405044691"><ele>632.0</ele><time>2026-05-03T19:44:08.001Z</time></trkpt><trkpt lat="45.92553980959423" lon="10.224469785606123"><ele>628.7142857142858</ele><time>2026-05-03T19:44:11.001Z</time></trkpt><trkpt lat="45.92558087999434" lon="10.224548815159308"><ele>625.4285714285714</ele><time>2026-05-03T19:44:14.001Z</time></trkpt><trkpt lat="45.92560683770041" lon="10.224666841197335"><ele>622.1428571428571</ele><time>2026-05-03T19:44:17.001Z</time></trkpt><trkpt lat="45.925670496210515" lon="10.22471790324991"><ele>618.8571428571429</ele><time>2026-05-03T19:44:20.001Z</time></trkpt><trkpt lat="45.92573521690137" lon="10.22475970263884"><ele>615.5714285714286</ele><time>2026-05-03T19:44:23.001Z</time></trkpt><trkpt lat="45.9258014751804" lon="10.22479422557184"><ele>612.2857142857143</ele><time>2026-05-03T19:44:27.001Z</time></trkpt><trkpt lat="45.92586124974448" lon="10.224858002979822"><ele>609.0</ele><time>2026-05-03T19:44:31.001Z</time></trkpt><trkpt lat="45.9259058527184" lon="10.224945748424355"><ele>609.0</ele><time>2026-05-03T19:44:34.001Z</time></trkpt><trkpt lat="45.92595415040864" lon="10.225051580526175"><ele>609.0</ele><time>2026-05-03T19:44:38.001Z</time></trkpt><trkpt lat="45.926031920833545" lon="10.225104061274305"><ele>609.0</ele><time>2026-05-03T19:44:42.001Z</time></trkpt><trkpt lat="45.926091924049224" lon="10.225173052514762"><ele>609.0</ele><time>2026-05-03T19:44:45.001Z</time></trkpt><trkpt lat="45.92613696851622" lon="10.225240906651013"><ele>609.0</ele><time>2026-05-03T19:44:48.001Z</time></trkpt><trkpt lat="45.92619074737974" lon="10.225312677105585"><ele>609.0</ele><time>2026-05-03T19:44:51Z</time></trkpt><trkpt lat="45.926239365343264" lon="10.225386577448587"><ele>609.0</ele><time>2026-05-03T19:44:54Z</time></trkpt><trkpt lat="45.92629685221338" lon="10.225456059962637"><ele>609.0</ele><time>2026-05-03T19:44:57Z</time></trkpt><trkpt lat="45.926349131502036" lon="10.225530740186304"><ele>609.0</ele><time>2026-05-03T19:45:00Z</time></trkpt><trkpt lat="45.92640232555445" lon="10.225600178920587"><ele>609.0</ele><time>2026-05-03T19:45:03Z</time></trkpt><trkpt lat="45.92645833223119" lon="10.225669394137435"><ele>609.0</ele><time>2026-05-03T19:45:06Z</time></trkpt><trkpt lat="45.92651110428" lon="10.225750244095453"><ele>609.0</ele><time>2026-05-03T19:45:09Z</time></trkpt><trkpt lat="45.92655983641056" lon="10.225822577643589"><ele>609.0</ele><time>2026-05-03T19:45:13Z</time></trkpt><trkpt lat="45.926604569285445" lon="10.225900235732333"><ele>612.0</ele><time>2026-05-03T19:45:16Z</time></trkpt><trkpt lat="45.92666368613557" lon="10.225955627317159"><ele>615.0</ele><time>2026-05-03T19:45:19Z</time></trkpt><trkpt lat="45.92671492613205" lon="10.226026607115783"><ele>618.0</ele><time>2026-05-03T19:45:22Z</time></trkpt><trkpt lat="45.92675500141266" lon="10.226101362015475"><ele>621.0</ele><time>2026-05-03T19:45:25Z</time></trkpt><trkpt lat="45.926807588997576" lon="10.226195331318682"><ele>624.0</ele><time>2026-05-03T19:45:29Z</time></trkpt><trkpt lat="45.92684463181275" lon="10.22627076944764"><ele>627.0</ele><time>2026-05-03T19:45:32Z</time></trkpt><trkpt lat="45.92688307064616" lon="10.226349781307354"><ele>630.0</ele><time>2026-05-03T19:45:35Z</time></trkpt><trkpt lat="45.926914971195025" lon="10.22643353283144"><ele>623.7142857142857</ele><time>2026-05-03T19:45:53.001Z</time></trkpt><trkpt lat="45.92692902728558" lon="10.2265383980121"><ele>617.4285714285714</ele><time>2026-05-03T19:45:58.001Z</time></trkpt><trkpt lat="45.92696460752263" lon="10.226640816831603"><ele>611.1428571428571</ele><time>2026-05-03T19:46:01.001Z</time></trkpt><trkpt lat="45.926999202452876" lon="10.226726423588032"><ele>604.8571428571429</ele><time>2026-05-03T19:46:03.001Z</time></trkpt><trkpt lat="45.92703602634154" lon="10.226820779636972"><ele>598.5714285714286</ele><time>2026-05-03T19:46:05.001Z</time></trkpt><trkpt lat="45.92706905489175" lon="10.226906255485446"><ele>592.2857142857142</ele><time>2026-05-03T19:46:07.001Z</time></trkpt><trkpt lat="45.927109202822166" lon="10.227005815822343"><ele>586.0</ele><time>2026-05-03T19:46:10.001Z</time></trkpt><trkpt lat="45.92712888008003" lon="10.22709484953173"><ele>586.0</ele><time>2026-05-03T19:46:13.001Z</time></trkpt><trkpt lat="45.9271839242569" lon="10.22718475226761"><ele>586.0</ele><time>2026-05-03T19:47:49Z</time></trkpt><trkpt lat="45.9271497284791" lon="10.227104548991473"><ele>586.0</ele><time>2026-05-03T19:48:31.001Z</time></trkpt><trkpt lat="45.927205046244964" lon="10.227202496800585"><ele>586.0</ele><time>2026-05-03T19:48:41.001Z</time></trkpt><trkpt lat="45.927262065432274" lon="10.227292867751068"><ele>586.0</ele><time>2026-05-03T19:48:43.001Z</time></trkpt><trkpt lat="45.92732756421235" lon="10.227383057771783"><ele>586.0</ele><time>2026-05-03T19:48:45.001Z</time></trkpt><trkpt lat="45.92738031062755" lon="10.227449589942886"><ele>582.2</ele><time>2026-05-03T19:48:47.001Z</time></trkpt><trkpt lat="45.92744937693286" lon="10.227555580552119"><ele>578.4000000000001</ele><time>2026-05-03T19:48:50.001Z</time></trkpt><trkpt lat="45.92751296090558" lon="10.227667391207424"><ele>574.6</ele><time>2026-05-03T19:48:52.001Z</time></trkpt><trkpt lat="45.92756184467851" lon="10.22778914198575"><ele>570.8000000000001</ele><time>2026-05-03T19:48:54.001Z</time></trkpt><trkpt lat="45.92760454424056" lon="10.227906763776259"><ele>567.0</ele><time>2026-05-03T19:48:56.001Z</time></trkpt><trkpt lat="45.927648882276586" lon="10.228021451811337"><ele>575.6</ele><time>2026-05-03T19:48:58.001Z</time></trkpt><trkpt lat="45.92770279441715" lon="10.228138108706908"><ele>584.2</ele><time>2026-05-03T19:49:00.001Z</time></trkpt><trkpt lat="45.92775795353707" lon="10.228246808181717"><ele>592.8</ele><time>2026-05-03T19:49:01.999Z</time></trkpt><trkpt lat="45.927818733666754" lon="10.228363951508735"><ele>601.4</ele><time>2026-05-03T19:49:03.999Z</time></trkpt><trkpt lat="45.92787437583012" lon="10.228488812693227"><ele>610.0</ele><time>2026-05-03T19:49:05.999Z</time></trkpt><trkpt lat="45.92791528014187" lon="10.228623568087807"><ele>610.0</ele><time>2026-05-03T19:49:07.999Z</time></trkpt><trkpt lat="45.927949467666" lon="10.228722341905046"><ele>610.0</ele><time>2026-05-03T19:49:09.999Z</time></trkpt><trkpt lat="45.9279601178986" lon="10.22882763933224"><ele>610.0</ele><time>2026-05-03T19:49:13.999Z</time></trkpt><trkpt lat="45.92792694774232" lon="10.228718733533213"><ele>610.0</ele><time>2026-05-03T19:49:55Z</time></trkpt><trkpt lat="45.927885336416715" lon="10.228594802509113"><ele>610.0</ele><time>2026-05-03T19:49:58Z</time></trkpt><trkpt lat="45.92784098372804" lon="10.22843977528875"><ele>610.0</ele><time>2026-05-03T19:50:00Z</time></trkpt><trkpt lat="45.92779971136996" lon="10.228342344687468"><ele>610.0</ele><time>2026-05-03T19:50:02Z</time></trkpt><trkpt lat="45.92775353900928" lon="10.228250357348916"><ele>610.0</ele><time>2026-05-03T19:50:04Z</time></trkpt><trkpt lat="45.927704560925086" lon="10.228161794086883"><ele>610.0</ele><time>2026-05-03T19:50:06Z</time></trkpt><trkpt lat="45.9276602140567" lon="10.228075509399902"><ele>610.0</ele><time>2026-05-03T19:50:08Z</time></trkpt><trkpt lat="45.92761762816563" lon="10.227988306691504"><ele>610.0</ele><time>2026-05-03T19:50:10Z</time></trkpt><trkpt lat="45.92758305978257" lon="10.22789981969686"><ele>610.0</ele><time>2026-05-03T19:50:12Z</time></trkpt><trkpt lat="45.92754197294" lon="10.227798416404244"><ele>605.2</ele><time>2026-05-03T19:50:14Z</time></trkpt><trkpt lat="45.92750329334902" lon="10.227687394927063"><ele>600.4</ele><time>2026-05-03T19:50:16Z</time></trkpt><trkpt lat="45.927460273219076" lon="10.227579872187547"><ele>595.6</ele><time>2026-05-03T19:50:18Z</time></trkpt><trkpt lat="45.92739518881359" lon="10.227479776060685"><ele>590.8</ele><time>2026-05-03T19:50:20.001Z</time></trkpt><trkpt lat="45.92732116394658" lon="10.227375905834597"><ele>586.0</ele><time>2026-05-03T19:50:22.001Z</time></trkpt><trkpt lat="45.92724812879937" lon="10.227269994912191"><ele>586.0</ele><time>2026-05-03T19:50:24.001Z</time></trkpt><trkpt lat="45.927177324978445" lon="10.227174056245994"><ele>586.0</ele><time>2026-05-03T19:50:26.001Z</time></trkpt><trkpt lat="45.92711600426022" lon="10.22706930027729"><ele>586.0</ele><time>2026-05-03T19:50:28.001Z</time></trkpt><trkpt lat="45.92707083408171" lon="10.226933729719038"><ele>586.0</ele><time>2026-05-03T19:50:30.001Z</time></trkpt><trkpt lat="45.9270230244828" lon="10.22679051629076"><ele>586.0</ele><time>2026-05-03T19:50:32.001Z</time></trkpt><trkpt lat="45.92700974604337" lon="10.226619109416088"><ele>586.0</ele><time>2026-05-03T19:50:34.001Z</time></trkpt><trkpt lat="45.926968526449336" lon="10.226506886407396"><ele>586.0</ele><time>2026-05-03T19:50:36.001Z</time></trkpt><trkpt lat="45.92692545886731" lon="10.226396537421316"><ele>586.0</ele><time>2026-05-03T19:50:39.001Z</time></trkpt><trkpt lat="45.92687840360194" lon="10.226298361540902"><ele>586.0</ele><time>2026-05-03T19:50:41.001Z</time></trkpt><trkpt lat="45.92681044010054" lon="10.226201521467017"><ele>586.0</ele><time>2026-05-03T19:50:43.001Z</time></trkpt><trkpt lat="45.92672830755574" lon="10.226120392781832"><ele>582.3333333333334</ele><time>2026-05-03T19:50:45.001Z</time></trkpt><trkpt lat="45.92663939744282" lon="10.226056959033976"><ele>578.6666666666667</ele><time>2026-05-03T19:50:47.001Z</time></trkpt><trkpt lat="45.926553496846886" lon="10.22604225952084"><ele>575.0</ele><time>2026-05-03T19:50:49.001Z</time></trkpt><trkpt lat="45.92649336242503" lon="10.226009110826189"><ele>571.3333333333334</ele><time>2026-05-03T19:50:51.001Z</time></trkpt><trkpt lat="45.92644914946128" lon="10.226102493826817"><ele>567.6666666666666</ele><time>2026-05-03T19:50:54.001Z</time></trkpt><trkpt lat="45.92649729037196" lon="10.226213954363192"><ele>564.0</ele><time>2026-05-03T19:50:56.001Z</time></trkpt><trkpt lat="45.92654229064522" lon="10.226342645537645"><ele>564.0</ele><time>2026-05-03T19:50:58.001Z</time></trkpt><trkpt lat="45.92660443521237" lon="10.226477698545455"><ele>564.0</ele><time>2026-05-03T19:51:00.001Z</time></trkpt><trkpt lat="45.92663503499604" lon="10.226644603436851"><ele>564.0</ele><time>2026-05-03T19:51:02.001Z</time></trkpt><trkpt lat="45.92665596353575" lon="10.226815559328854"><ele>564.0</ele><time>2026-05-03T19:51:04.001Z</time></trkpt><trkpt lat="45.92667097734106" lon="10.226979280350427"><ele>564.6</ele><time>2026-05-03T19:51:06.001Z</time></trkpt><trkpt lat="45.92667339415028" lon="10.227121815735067"><ele>565.2</ele><time>2026-05-03T19:51:07.999Z</time></trkpt><trkpt lat="45.92667206768471" lon="10.227250863871792"><ele>565.8000000000001</ele><time>2026-05-03T19:51:09.999Z</time></trkpt><trkpt lat="45.92669715069814" lon="10.227379838939227"><ele>566.4</ele><time>2026-05-03T19:51:11.999Z</time></trkpt><trkpt lat="45.92672724219209" lon="10.2275036658425"><ele>567.0</ele><time>2026-05-03T19:51:13.999Z</time></trkpt><trkpt lat="45.92674991775505" lon="10.227636929903017"><ele>567.0</ele><time>2026-05-03T19:51:15.999Z</time></trkpt><trkpt lat="45.9267791656951" lon="10.227762490026983"><ele>567.0</ele><time>2026-05-03T19:51:17.999Z</time></trkpt><trkpt lat="45.92681989631289" lon="10.227858580666307"><ele>567.0</ele><time>2026-05-03T19:51:19.999Z</time></trkpt><trkpt lat="45.9268253287352" lon="10.22794928145381"><ele>567.0</ele><time>2026-05-03T19:51:21.999Z</time></trkpt><trkpt lat="45.92684806042493" lon="10.228042126704551"><ele>567.0</ele><time>2026-05-03T19:51:23.999Z</time></trkpt><trkpt lat="45.92693146884807" lon="10.228113431083539"><ele>567.0</ele><time>2026-05-03T19:51:25.999Z</time></trkpt><trkpt lat="45.92699860010699" lon="10.228189864447998"><ele>562.0</ele><time>2026-05-03T19:51:28Z</time></trkpt><trkpt lat="45.92707311228115" lon="10.228272901076336"><ele>557.0</ele><time>2026-05-03T19:51:30Z</time></trkpt><trkpt lat="45.92714828261965" lon="10.228369785156668"><ele>552.0</ele><time>2026-05-03T19:51:32Z</time></trkpt><trkpt lat="45.92720612391596" lon="10.228506361905643"><ele>547.0</ele><time>2026-05-03T19:51:34Z</time></trkpt><trkpt lat="45.92724020721655" lon="10.228607878689385"><ele>542.0</ele><time>2026-05-03T19:51:36Z</time></trkpt><trkpt lat="45.92726175230118" lon="10.228732544123396"><ele>542.0</ele><time>2026-05-03T19:51:39Z</time></trkpt><trkpt lat="45.92730187235118" lon="10.228824178959663"><ele>542.0</ele><time>2026-05-03T19:51:41Z</time></trkpt><trkpt lat="45.92736229953547" lon="10.22892309594293"><ele>542.0</ele><time>2026-05-03T19:51:43Z</time></trkpt><trkpt lat="45.92742987337905" lon="10.229035227773304"><ele>542.0</ele><time>2026-05-03T19:51:45Z</time></trkpt><trkpt lat="45.92748870331443" lon="10.229172170015177"><ele>542.0</ele><time>2026-05-03T19:51:47Z</time></trkpt><trkpt lat="45.927534019820754" lon="10.229321605443738"><ele>545.4</ele><time>2026-05-03T19:51:49Z</time></trkpt><trkpt lat="45.92757658874139" lon="10.229472299901586"><ele>548.8000000000001</ele><time>2026-05-03T19:51:51Z</time></trkpt><trkpt lat="45.92762021841522" lon="10.229604025850389"><ele>552.2</ele><time>2026-05-03T19:51:53Z</time></trkpt><trkpt lat="45.92766558411756" lon="10.229730072324623"><ele>555.6</ele><time>2026-05-03T19:51:55Z</time></trkpt><trkpt lat="45.92769634211153" lon="10.229841234883605"><ele>559.0</ele><time>2026-05-03T19:51:57Z</time></trkpt><trkpt lat="45.92771182712235" lon="10.229942597519596"><ele>559.0</ele><time>2026-05-03T19:51:59Z</time></trkpt><trkpt lat="45.92773526601241" lon="10.2300375594717"><ele>559.0</ele><time>2026-05-03T19:52:01Z</time></trkpt><trkpt lat="45.927761421061646" lon="10.23017355540355"><ele>559.0</ele><time>2026-05-03T19:52:04.001Z</time></trkpt><trkpt lat="45.92777781588126" lon="10.230283402210166"><ele>559.0</ele><time>2026-05-03T19:52:06.001Z</time></trkpt><trkpt lat="45.927783278926626" lon="10.230405381826918"><ele>559.0</ele><time>2026-05-03T19:52:08.001Z</time></trkpt><trkpt lat="45.92779067192026" lon="10.230536215624351"><ele>559.0</ele><time>2026-05-03T19:52:10.001Z</time></trkpt><trkpt lat="45.92778897053943" lon="10.230666255741959"><ele>552.0</ele><time>2026-05-03T19:52:12.001Z</time></trkpt><trkpt lat="45.92779113271828" lon="10.230773063290332"><ele>545.0</ele><time>2026-05-03T19:52:14.001Z</time></trkpt><trkpt lat="45.92778330948128" lon="10.23086641404953"><ele>538.0</ele><time>2026-05-03T19:52:16.001Z</time></trkpt><trkpt lat="45.92779386799857" lon="10.23097120390652"><ele>531.0</ele><time>2026-05-03T19:52:18.001Z</time></trkpt><trkpt lat="45.92783777554815" lon="10.231091528112982"><ele>524.0</ele><time>2026-05-03T19:52:20.001Z</time></trkpt><trkpt lat="45.92789025746182" lon="10.231219688941193"><ele>517.0</ele><time>2026-05-03T19:52:22.001Z</time></trkpt><trkpt lat="45.92794493988933" lon="10.231336688930334"><ele>517.0</ele><time>2026-05-03T19:52:24.001Z</time></trkpt><trkpt lat="45.927997464750106" lon="10.231445159743743"><ele>517.0</ele><time>2026-05-03T19:52:26.001Z</time></trkpt><trkpt lat="45.928053094143856" lon="10.231531479724879"><ele>517.0</ele><time>2026-05-03T19:52:28.001Z</time></trkpt><trkpt lat="45.928103127991356" lon="10.231611823036546"><ele>517.0</ele><time>2026-05-03T19:52:31.001Z</time></trkpt><trkpt lat="45.92803761572624" lon="10.231765623430361"><ele>517.0</ele><time>2026-05-03T19:52:32.001Z</time></trkpt><trkpt lat="45.92810204808136" lon="10.231650818128937"><ele>511.7142857142857</ele><time>2026-05-03T19:52:33.001Z</time></trkpt><trkpt lat="45.928039336728425" lon="10.231617208928384"><ele>506.42857142857144</ele><time>2026-05-03T19:52:47.001Z</time></trkpt><trkpt lat="45.928002699520924" lon="10.23153740932492"><ele>501.14285714285717</ele><time>2026-05-03T19:52:50.001Z</time></trkpt><trkpt lat="45.92793939625015" lon="10.231525589316814"><ele>495.8571428571429</ele><time>2026-05-03T19:52:56.002Z</time></trkpt><trkpt lat="45.92796615755032" lon="10.23161406263043"><ele>490.57142857142856</ele><time>2026-05-03T19:53:02.002Z</time></trkpt><trkpt lat="45.92799029628225" lon="10.231708924461802"><ele>485.28571428571433</ele><time>2026-05-03T19:53:04.002Z</time></trkpt><trkpt lat="45.92805814372466" lon="10.231770874015634"><ele>480.0</ele><time>2026-05-03T19:53:06.002Z</time></trkpt><trkpt lat="45.92813078467916" lon="10.231861026918164"><ele>480.0</ele><time>2026-05-03T19:53:08.002Z</time></trkpt><trkpt lat="45.92823565806017" lon="10.231908369247446"><ele>480.0</ele><time>2026-05-03T19:53:10.002Z</time></trkpt><trkpt lat="45.92829874198859" lon="10.231909220521734"><ele>480.0</ele><time>2026-05-03T19:53:11.002Z</time></trkpt><trkpt lat="45.92840982299688" lon="10.231950532348725"><ele>480.0</ele><time>2026-05-03T19:53:13.002Z</time></trkpt><trkpt lat="45.92849493243142" lon="10.232035097548838"><ele>480.0</ele><time>2026-05-03T19:53:15Z</time></trkpt><trkpt lat="45.9285683108686" lon="10.232121914652993"><ele>485.0</ele><time>2026-05-03T19:53:17Z</time></trkpt><trkpt lat="45.92860472151483" lon="10.23223576762536"><ele>490.0</ele><time>2026-05-03T19:53:20Z</time></trkpt><trkpt lat="45.9286303969011" lon="10.232326610217836"><ele>495.0</ele><time>2026-05-03T19:53:22Z</time></trkpt><trkpt lat="45.92866497903953" lon="10.232444056244562"><ele>500.0</ele><time>2026-05-03T19:53:24Z</time></trkpt><trkpt lat="45.92871335729647" lon="10.232560076348005"><ele>505.0</ele><time>2026-05-03T19:53:26Z</time></trkpt><trkpt lat="45.92875312587893" lon="10.232697062897312"><ele>510.0</ele><time>2026-05-03T19:53:28Z</time></trkpt><trkpt lat="45.928770843288724" lon="10.232852086372807"><ele>510.0</ele><time>2026-05-03T19:53:30Z</time></trkpt><trkpt lat="45.92875193885656" lon="10.233007568288487"><ele>510.0</ele><time>2026-05-03T19:53:32Z</time></trkpt><trkpt lat="45.928721664783595" lon="10.233166986581315"><ele>510.0</ele><time>2026-05-03T19:53:34Z</time></trkpt><trkpt lat="45.9287048167859" lon="10.23332346446555"><ele>510.0</ele><time>2026-05-03T19:53:36Z</time></trkpt><trkpt lat="45.92870516569722" lon="10.23347405292202"><ele>510.0</ele><time>2026-05-03T19:53:38Z</time></trkpt><trkpt lat="45.92870965078736" lon="10.233625832502215"><ele>505.0</ele><time>2026-05-03T19:53:40Z</time></trkpt><trkpt lat="45.928705606317614" lon="10.233780670544933"><ele>500.0</ele><time>2026-05-03T19:53:42Z</time></trkpt><trkpt lat="45.928687166169844" lon="10.233929499682139"><ele>495.0</ele><time>2026-05-03T19:53:44Z</time></trkpt><trkpt lat="45.92866284296272" lon="10.234065684688785"><ele>490.0</ele><time>2026-05-03T19:53:46Z</time></trkpt><trkpt lat="45.92861591857832" lon="10.234190632758713"><ele>485.0</ele><time>2026-05-03T19:53:48Z</time></trkpt><trkpt lat="45.92861642530917" lon="10.2343010362113"><ele>485.0</ele><time>2026-05-03T19:53:50.001Z</time></trkpt><trkpt lat="45.92860814030005" lon="10.23439395859616"><ele>485.0</ele><time>2026-05-03T19:53:52.001Z</time></trkpt><trkpt lat="45.928613835535806" lon="10.234517404926887"><ele>485.0</ele><time>2026-05-03T19:53:54.001Z</time></trkpt><trkpt lat="45.928644931500976" lon="10.234660632104113"><ele>485.0</ele><time>2026-05-03T19:53:56.001Z</time></trkpt><trkpt lat="45.928699208363845" lon="10.234795736834919"><ele>485.0</ele><time>2026-05-03T19:53:58.001Z</time></trkpt><trkpt lat="45.92875571176296" lon="10.234941459456728"><ele>480.0</ele><time>2026-05-03T19:54:00.001Z</time></trkpt><trkpt lat="45.92880007224611" lon="10.235056463595349"><ele>475.0</ele><time>2026-05-03T19:54:02.001Z</time></trkpt><trkpt lat="45.92883877745414" lon="10.235136969534842"><ele>470.0</ele><time>2026-05-03T19:54:04.001Z</time></trkpt><trkpt lat="45.92884601325853" lon="10.235273836262431"><ele>465.0</ele><time>2026-05-03T19:54:06.001Z</time></trkpt><trkpt lat="45.92884278163382" lon="10.235407581937817"><ele>460.0</ele><time>2026-05-03T19:54:08.001Z</time></trkpt><trkpt lat="45.92883173051658" lon="10.23556627112598"><ele>453.4</ele><time>2026-05-03T19:54:10.001Z</time></trkpt><trkpt lat="45.92883875064742" lon="10.23570578065689"><ele>446.8</ele><time>2026-05-03T19:54:12.001Z</time></trkpt><trkpt lat="45.928856288064416" lon="10.23584152439219"><ele>440.20000000000005</ele><time>2026-05-03T19:54:14.001Z</time></trkpt><trkpt lat="45.928883690856125" lon="10.235979208939312"><ele>433.6</ele><time>2026-05-03T19:54:16.001Z</time></trkpt><trkpt lat="45.928912356120534" lon="10.23610849404129"><ele>427.0</ele><time>2026-05-03T19:54:18.001Z</time></trkpt><trkpt lat="45.92893677865369" lon="10.236244177597849"><ele>427.0</ele><time>2026-05-03T19:54:20.001Z</time></trkpt><trkpt lat="45.92897428771879" lon="10.236375970782976"><ele>427.00000000000006</ele><time>2026-05-03T19:54:22.001Z</time></trkpt><trkpt lat="45.9290269790876" lon="10.236482536228026"><ele>427.00000000000006</ele><time>2026-05-03T19:54:24.001Z</time></trkpt><trkpt lat="45.92907593152108" lon="10.236593143476039"><ele>427.0</ele><time>2026-05-03T19:54:26.001Z</time></trkpt><trkpt lat="45.92911157985335" lon="10.236716328522506"><ele>427.0</ele><time>2026-05-03T19:54:28.001Z</time></trkpt><trkpt lat="45.92913906512833" lon="10.236842807570932"><ele>423.0</ele><time>2026-05-03T19:54:30.001Z</time></trkpt><trkpt lat="45.929179562516254" lon="10.236977880684519"><ele>419.00000000000006</ele><time>2026-05-03T19:54:32.001Z</time></trkpt><trkpt lat="45.92922850000258" lon="10.237098991641037"><ele>415.0</ele><time>2026-05-03T19:54:34.001Z</time></trkpt><trkpt lat="45.92929163491638" lon="10.237206835447076"><ele>411.0</ele><time>2026-05-03T19:54:36.001Z</time></trkpt><trkpt lat="45.929358368313345" lon="10.237319320219294"><ele>407.0</ele><time>2026-05-03T19:54:38.001Z</time></trkpt><trkpt lat="45.92940198413387" lon="10.237447140232348"><ele>407.0</ele><time>2026-05-03T19:54:40.002Z</time></trkpt><trkpt lat="45.92947146641403" lon="10.237558284285532"><ele>407.0</ele><time>2026-05-03T19:54:42.002Z</time></trkpt><trkpt lat="45.92954662661203" lon="10.237666215788897"><ele>407.0</ele><time>2026-05-03T19:54:44.002Z</time></trkpt><trkpt lat="45.92962462949101" lon="10.237781780518313"><ele>407.0</ele><time>2026-05-03T19:54:46.002Z</time></trkpt><trkpt lat="45.929704635668344" lon="10.237884542032102"><ele>407.0</ele><time>2026-05-03T19:54:48.002Z</time></trkpt><trkpt lat="45.92978191447668" lon="10.237996861859644"><ele>407.0</ele><time>2026-05-03T19:54:50.002Z</time></trkpt><trkpt lat="45.929857480538914" lon="10.238108832316108"><ele>407.0</ele><time>2026-05-03T19:54:52.002Z</time></trkpt><trkpt lat="45.929924464334846" lon="10.23822175732977"><ele>407.0</ele><time>2026-05-03T19:54:54.002Z</time></trkpt><trkpt lat="45.9299985753218" lon="10.23834038992964"><ele>407.0</ele><time>2026-05-03T19:54:56.002Z</time></trkpt><trkpt lat="45.930074238837754" lon="10.238441409499904"><ele>407.0</ele><time>2026-05-03T19:54:58.002Z</time></trkpt><trkpt lat="45.93014671048577" lon="10.238519138805762"><ele>407.14285714285717</ele><time>2026-05-03T19:55:00.002Z</time></trkpt><trkpt lat="45.93020028680363" lon="10.23857028847412"><ele>407.2857142857143</ele><time>2026-05-03T19:55:02.002Z</time></trkpt><trkpt lat="45.930229615123494" lon="10.23865281226283"><ele>407.42857142857144</ele><time>2026-05-03T19:55:05.002Z</time></trkpt><trkpt lat="45.93016620051298" lon="10.238733565537757"><ele>407.57142857142856</ele><time>2026-05-03T19:55:09.002Z</time></trkpt><trkpt lat="45.93010682722656" lon="10.238665831748143"><ele>407.7142857142857</ele><time>2026-05-03T19:55:11.002Z</time></trkpt><trkpt lat="45.93003952777329" lon="10.238643122308332"><ele>407.8571428571429</ele><time>2026-05-03T19:55:13.002Z</time></trkpt><trkpt lat="45.92996387857371" lon="10.238617097308513"><ele>408.0</ele><time>2026-05-03T19:55:15.002Z</time></trkpt><trkpt lat="45.929890004627396" lon="10.238591683038702"><ele>403.0</ele><time>2026-05-03T19:55:17.002Z</time></trkpt><trkpt lat="45.92981235500929" lon="10.238569943092935"><ele>398.0</ele><time>2026-05-03T19:55:19.002Z</time></trkpt><trkpt lat="45.92973676697612" lon="10.238570551666234"><ele>393.0</ele><time>2026-05-03T19:55:21Z</time></trkpt><trkpt lat="45.929649694488816" lon="10.238555344891948"><ele>388.0</ele><time>2026-05-03T19:55:24Z</time></trkpt><trkpt lat="45.92959229288014" lon="10.238493882802212"><ele>383.0</ele><time>2026-05-03T19:55:27Z</time></trkpt><trkpt lat="45.92951787519223" lon="10.238499990257218"><ele>378.0</ele><time>2026-05-03T19:55:31Z</time></trkpt><trkpt lat="45.92949745673436" lon="10.238623284814086"><ele>378.0</ele><time>2026-05-03T19:55:33Z</time></trkpt><trkpt lat="45.929583498088846" lon="10.238700784006976"><ele>378.0</ele><time>2026-05-03T19:55:35Z</time></trkpt><trkpt lat="45.92964678850012" lon="10.238772585668558"><ele>378.0</ele><time>2026-05-03T19:55:37Z</time></trkpt><trkpt lat="45.92971961915546" lon="10.23884983499249"><ele>378.0</ele><time>2026-05-03T19:55:39Z</time></trkpt><trkpt lat="45.92979854238802" lon="10.238927007563474"><ele>378.0</ele><time>2026-05-03T19:55:41Z</time></trkpt><trkpt lat="45.92987960596224" lon="10.23899678451103"><ele>374.3333333333333</ele><time>2026-05-03T19:55:43Z</time></trkpt><trkpt lat="45.929962240437405" lon="10.239052675178854"><ele>370.6666666666667</ele><time>2026-05-03T19:55:45Z</time></trkpt><trkpt lat="45.93003085310515" lon="10.239084861812252"><ele>367.0</ele><time>2026-05-03T19:55:47.001Z</time></trkpt><trkpt lat="45.93011762957782" lon="10.23913187332361"><ele>363.33333333333337</ele><time>2026-05-03T19:55:50.001Z</time></trkpt><trkpt lat="45.93017362223795" lon="10.239204501821812"><ele>359.6666666666667</ele><time>2026-05-03T19:55:52.001Z</time></trkpt><trkpt lat="45.93023857993965" lon="10.239250903126706"><ele>356.0</ele><time>2026-05-03T19:55:54.001Z</time></trkpt><trkpt lat="45.930306066285944" lon="10.23932028018139"><ele>356.0</ele><time>2026-05-03T19:55:56.001Z</time></trkpt><trkpt lat="45.930363534613655" lon="10.239393937442468"><ele>356.0</ele><time>2026-05-03T19:55:58.001Z</time></trkpt><trkpt lat="45.93042579049384" lon="10.23945903096047"><ele>356.0</ele><time>2026-05-03T19:56:00.001Z</time></trkpt><trkpt lat="45.93049288193765" lon="10.239499591113493"><ele>356.0</ele><time>2026-05-03T19:56:02.001Z</time></trkpt><trkpt lat="45.930571630407776" lon="10.23951785746855"><ele>356.0</ele><time>2026-05-03T19:56:05.001Z</time></trkpt><trkpt lat="45.930619584645925" lon="10.239618567108591"><ele>356.0</ele><time>2026-05-03T19:56:09.001Z</time></trkpt><trkpt lat="45.930718032217" lon="10.239595253717795"><ele>356.0</ele><time>2026-05-03T19:56:11.001Z</time></trkpt><trkpt lat="45.930811815493875" lon="10.239612837631702"><ele>356.0</ele><time>2026-05-03T19:56:13.001Z</time></trkpt><trkpt lat="45.930909443099246" lon="10.23964275764978"><ele>356.0</ele><time>2026-05-03T19:56:15.001Z</time></trkpt><trkpt lat="45.93101481595887" lon="10.239682850335713"><ele>356.0</ele><time>2026-05-03T19:56:17.001Z</time></trkpt><trkpt lat="45.931090961901454" lon="10.239710486777467"><ele>356.0</ele><time>2026-05-03T19:56:19.001Z</time></trkpt><trkpt lat="45.93116795308523" lon="10.239762729939942"><ele>360.8</ele><time>2026-05-03T19:56:21.001Z</time></trkpt><trkpt lat="45.93125802763004" lon="10.239798249040533"><ele>365.6</ele><time>2026-05-03T19:56:23.001Z</time></trkpt><trkpt lat="45.931352410412416" lon="10.239838045620138"><ele>370.4</ele><time>2026-05-03T19:56:25.001Z</time></trkpt><trkpt lat="45.93143186707169" lon="10.239871737274795"><ele>375.2</ele><time>2026-05-03T19:56:27.001Z</time></trkpt><trkpt lat="45.93151640796311" lon="10.239932253594944"><ele>380.0</ele><time>2026-05-03T19:56:29.001Z</time></trkpt><trkpt lat="45.9316071272677" lon="10.240000375070265"><ele>372.8</ele><time>2026-05-03T19:56:31.001Z</time></trkpt><trkpt lat="45.93169759923056" lon="10.24006496648824"><ele>365.6</ele><time>2026-05-03T19:56:33.001Z</time></trkpt><trkpt lat="45.93179210002872" lon="10.24011372769421"><ele>358.4</ele><time>2026-05-03T19:56:35.001Z</time></trkpt><trkpt lat="45.93189662043318" lon="10.240139600526474"><ele>351.2</ele><time>2026-05-03T19:56:37.001Z</time></trkpt><trkpt lat="45.93200032346452" lon="10.240156159760526"><ele>344.0</ele><time>2026-05-03T19:56:39.001Z</time></trkpt><trkpt lat="45.93211985382167" lon="10.240172784483068"><ele>344.0</ele><time>2026-05-03T19:56:41.002Z</time></trkpt><trkpt lat="45.9322165517375" lon="10.240200019361023"><ele>344.0</ele><time>2026-05-03T19:56:43.002Z</time></trkpt><trkpt lat="45.93230320857915" lon="10.240254907633542"><ele>344.0</ele><time>2026-05-03T19:56:45.002Z</time></trkpt><trkpt lat="45.93239057300701" lon="10.24029628735451"><ele>344.0</ele><time>2026-05-03T19:56:47.002Z</time></trkpt><trkpt lat="45.93248131512574" lon="10.240330103531324"><ele>344.0</ele><time>2026-05-03T19:56:49.002Z</time></trkpt><trkpt lat="45.932573009467106" lon="10.240394230024902"><ele>349.2</ele><time>2026-05-03T19:56:51.002Z</time></trkpt><trkpt lat="45.93266632985818" lon="10.240459745837095"><ele>354.4</ele><time>2026-05-03T19:56:53.002Z</time></trkpt><trkpt lat="45.93275802999018" lon="10.240528668956902"><ele>359.6</ele><time>2026-05-03T19:56:55.002Z</time></trkpt><trkpt lat="45.93285175541633" lon="10.240588679772719"><ele>364.8</ele><time>2026-05-03T19:56:57.002Z</time></trkpt><trkpt lat="45.9329502699036" lon="10.240661564096584"><ele>370.0</ele><time>2026-05-03T19:56:59.002Z</time></trkpt><trkpt lat="45.9330377668459" lon="10.24074679998376"><ele>362.8</ele><time>2026-05-03T19:57:01.002Z</time></trkpt><trkpt lat="45.93313602388189" lon="10.24081018097455"><ele>355.6</ele><time>2026-05-03T19:57:03.002Z</time></trkpt><trkpt lat="45.933229245127286" lon="10.240885484823192"><ele>348.4</ele><time>2026-05-03T19:57:05.002Z</time></trkpt><trkpt lat="45.93331420080273" lon="10.240963991925632"><ele>341.2</ele><time>2026-05-03T19:57:07.002Z</time></trkpt><trkpt lat="45.9334131666926" lon="10.241022306283073"><ele>334.0</ele><time>2026-05-03T19:57:09.002Z</time></trkpt><trkpt lat="45.933518779144045" lon="10.24108213033174"><ele>334.0</ele><time>2026-05-03T19:57:11.002Z</time></trkpt><trkpt lat="45.933621799503655" lon="10.2411531772525"><ele>334.0</ele><time>2026-05-03T19:57:13.002Z</time></trkpt><trkpt lat="45.93372133684518" lon="10.241222983162134"><ele>334.0</ele><time>2026-05-03T19:57:15.002Z</time></trkpt><trkpt lat="45.93382339013362" lon="10.24129673480929"><ele>334.0</ele><time>2026-05-03T19:57:17.002Z</time></trkpt><trkpt lat="45.93389536268558" lon="10.241381159920575"><ele>334.0</ele><time>2026-05-03T19:57:19.002Z</time></trkpt><trkpt lat="45.933970980972965" lon="10.241472288287442"><ele>328.59999999999997</ele><time>2026-05-03T19:57:21.002Z</time></trkpt><trkpt lat="45.93405194428857" lon="10.241555790681938"><ele>323.2</ele><time>2026-05-03T19:57:23.002Z</time></trkpt><trkpt lat="45.934120776802445" lon="10.241635885201518"><ele>317.79999999999995</ele><time>2026-05-03T19:57:25.002Z</time></trkpt><trkpt lat="45.93417649023109" lon="10.241721458390456"><ele>312.4</ele><time>2026-05-03T19:57:26.999Z</time></trkpt><trkpt lat="45.93421637473529" lon="10.241841206588472"><ele>307.0</ele><time>2026-05-03T19:57:28.999Z</time></trkpt><trkpt lat="45.93425887608097" lon="10.24196282400284"><ele>307.0</ele><time>2026-05-03T19:57:30.999Z</time></trkpt><trkpt lat="45.93429810692416" lon="10.242077569682419"><ele>307.0</ele><time>2026-05-03T19:57:32.999Z</time></trkpt><trkpt lat="45.93433226940608" lon="10.242193235312198"><ele>307.0</ele><time>2026-05-03T19:57:34.999Z</time></trkpt><trkpt lat="45.93435319027611" lon="10.242308148796932"><ele>307.0</ele><time>2026-05-03T19:57:36.999Z</time></trkpt><trkpt lat="45.93437411624729" lon="10.242413473447199"><ele>307.0</ele><time>2026-05-03T19:57:38.999Z</time></trkpt><trkpt lat="45.93439961022637" lon="10.242506611251136"><ele>307.0</ele><time>2026-05-03T19:57:40.999Z</time></trkpt><trkpt lat="45.93444986214996" lon="10.242598155203261"><ele>300.5</ele><time>2026-05-03T19:57:43Z</time></trkpt><trkpt lat="45.934532050211025" lon="10.242732718543705"><ele>294.0</ele><time>2026-05-03T19:57:45Z</time></trkpt><trkpt lat="45.934578277054435" lon="10.242812532132628"><ele>287.5</ele><time>2026-05-03T19:57:46Z</time></trkpt><trkpt lat="45.93462464393261" lon="10.242882646510784"><ele>281.0</ele><time>2026-05-03T19:57:47Z</time></trkpt><trkpt lat="45.93466689196869" lon="10.242953573487494"><ele>274.5</ele><time>2026-05-03T19:57:48Z</time></trkpt><trkpt lat="45.93471526431241" lon="10.243020087118692"><ele>268.0</ele><time>2026-05-03T19:57:49Z</time></trkpt><trkpt lat="45.93477945484231" lon="10.243182615966003"><ele>266.8</ele><time>2026-05-03T19:57:51Z</time></trkpt><trkpt lat="45.93481259335973" lon="10.243262860718739"><ele>265.6</ele><time>2026-05-03T19:57:52Z</time></trkpt><trkpt lat="45.9348631839934" lon="10.243428841745208"><ele>264.4</ele><time>2026-05-03T19:57:54Z</time></trkpt><trkpt lat="45.93490718991391" lon="10.243577286722658"><ele>263.2</ele><time>2026-05-03T19:57:56Z</time></trkpt><trkpt lat="45.93496408388979" lon="10.24369509237347"><ele>262.0</ele><time>2026-05-03T19:57:58Z</time></trkpt><trkpt lat="45.9350178142526" lon="10.243794033899562"><ele>262.0</ele><time>2026-05-03T19:58:00Z</time></trkpt><trkpt lat="45.93505630234683" lon="10.243896541546071"><ele>268.0</ele><time>2026-05-03T19:58:02Z</time></trkpt><trkpt lat="45.935093101497436" lon="10.24401288219451"><ele>264.0</ele><time>2026-05-03T19:58:04Z</time></trkpt><trkpt lat="45.935125396128136" lon="10.24412419988577"><ele>264.0</ele><time>2026-05-03T19:58:06Z</time></trkpt></trkseg></trk></gpx>